<?xml version="1.0" encoding="UTF-8" standalone="no" ?>
<gpx xmlns="http://www.topografix.com/GPX/1/1" xmlns:xsi="http://www.w3.org/2001/XMLSchema-instance" xsi:schemaLocation="http://www.topografix.com/GPX/1/1 http://www.topografix.com/GPX/1/1/gpx.xsd" version="1.1" creator="VisuGPX - https://www.visugpx.com">
  <metadata>
    <name>cap apres velo</name>
    <desc><![CDATA[course a pied apres circuit duathlon montberon a velo]]></desc>
  </metadata>
  <trk>
    <name><![CDATA[Course à pied matinale]]></name>
    <trkseg>
      <trkpt lat="43.71811" lon="1.46369">
        <ele>173.6</ele>
        <time>2014-10-19T08:57:11Z</time>
      </trkpt>
      <trkpt lat="43.71809" lon="1.46388">
        <ele>173.8</ele>
        <time>2014-10-19T08:57:17Z</time>
      </trkpt>
      <trkpt lat="43.71813" lon="1.46414">
        <ele>174.1</ele>
        <time>2014-10-19T08:57:24Z</time>
      </trkpt>
      <trkpt lat="43.71814" lon="1.46419">
        <ele>174.1</ele>
        <time>2014-10-19T08:57:25Z</time>
      </trkpt>
      <trkpt lat="43.71816" lon="1.46423">
        <ele>174.2</ele>
        <time>2014-10-19T08:57:26Z</time>
      </trkpt>
      <trkpt lat="43.71818" lon="1.46427">
        <ele>174.2</ele>
        <time>2014-10-19T08:57:27Z</time>
      </trkpt>
      <trkpt lat="43.71828" lon="1.4645">
        <ele>174.4</ele>
        <time>2014-10-19T08:57:33Z</time>
      </trkpt>
      <trkpt lat="43.7183" lon="1.46453">
        <ele>174.4</ele>
        <time>2014-10-19T08:57:34Z</time>
      </trkpt>
      <trkpt lat="43.71836" lon="1.46468">
        <ele>174.7</ele>
        <time>2014-10-19T08:57:38Z</time>
      </trkpt>
      <trkpt lat="43.71839" lon="1.46489">
        <ele>175.2</ele>
        <time>2014-10-19T08:57:43Z</time>
      </trkpt>
      <trkpt lat="43.71838" lon="1.46496">
        <ele>175.3</ele>
        <time>2014-10-19T08:57:45Z</time>
      </trkpt>
      <trkpt lat="43.71837" lon="1.46527">
        <ele>176.1</ele>
        <time>2014-10-19T09:00:40Z</time>
      </trkpt>
      <trkpt lat="43.71835" lon="1.46531">
        <ele>176.2</ele>
        <time>2014-10-19T09:00:42Z</time>
      </trkpt>
      <trkpt lat="43.7183" lon="1.46534">
        <ele>176.4</ele>
        <time>2014-10-19T09:00:46Z</time>
      </trkpt>
      <trkpt lat="43.71826" lon="1.46532">
        <ele>176.4</ele>
        <time>2014-10-19T09:00:49Z</time>
      </trkpt>
      <trkpt lat="43.71823" lon="1.4653">
        <ele>176.3</ele>
        <time>2014-10-19T09:00:52Z</time>
      </trkpt>
      <trkpt lat="43.71819" lon="1.46528">
        <ele>176.3</ele>
        <time>2014-10-19T09:00:54Z</time>
      </trkpt>
      <trkpt lat="43.71815" lon="1.46526">
        <ele>176.3</ele>
        <time>2014-10-19T09:00:57Z</time>
      </trkpt>
      <trkpt lat="43.71812" lon="1.46525">
        <ele>176.3</ele>
        <time>2014-10-19T09:00:58Z</time>
      </trkpt>
      <trkpt lat="43.71792" lon="1.46522">
        <ele>176.5</ele>
        <time>2014-10-19T09:01:05Z</time>
      </trkpt>
      <trkpt lat="43.71772" lon="1.46529">
        <ele>177.1</ele>
        <time>2014-10-19T09:01:12Z</time>
      </trkpt>
      <trkpt lat="43.7176" lon="1.46537">
        <ele>177.6</ele>
        <time>2014-10-19T09:01:17Z</time>
      </trkpt>
      <trkpt lat="43.71757" lon="1.46539">
        <ele>177.7</ele>
        <time>2014-10-19T09:01:18Z</time>
      </trkpt>
      <trkpt lat="43.71755" lon="1.46541">
        <ele>177.9</ele>
        <time>2014-10-19T09:01:19Z</time>
      </trkpt>
      <trkpt lat="43.71752" lon="1.46543">
        <ele>177.9</ele>
        <time>2014-10-19T09:01:20Z</time>
      </trkpt>
      <trkpt lat="43.71747" lon="1.46545">
        <ele>178.1</ele>
        <time>2014-10-19T09:01:22Z</time>
      </trkpt>
      <trkpt lat="43.71744" lon="1.46546">
        <ele>178.1</ele>
        <time>2014-10-19T09:01:23Z</time>
      </trkpt>
      <trkpt lat="43.71739" lon="1.46548">
        <ele>178.3</ele>
        <time>2014-10-19T09:01:25Z</time>
      </trkpt>
      <trkpt lat="43.71736" lon="1.4655">
        <ele>178.3</ele>
        <time>2014-10-19T09:01:26Z</time>
      </trkpt>
      <trkpt lat="43.71734" lon="1.46551">
        <ele>178.4</ele>
        <time>2014-10-19T09:01:27Z</time>
      </trkpt>
      <trkpt lat="43.71722" lon="1.46556">
        <ele>178.7</ele>
        <time>2014-10-19T09:01:32Z</time>
      </trkpt>
      <trkpt lat="43.71718" lon="1.46556">
        <ele>178.8</ele>
        <time>2014-10-19T09:01:34Z</time>
      </trkpt>
      <trkpt lat="43.71695" lon="1.46561">
        <ele>179.3</ele>
        <time>2014-10-19T09:01:44Z</time>
      </trkpt>
      <trkpt lat="43.71691" lon="1.46561">
        <ele>179.5</ele>
        <time>2014-10-19T09:01:46Z</time>
      </trkpt>
      <trkpt lat="43.71686" lon="1.46563">
        <ele>179.6</ele>
        <time>2014-10-19T09:01:48Z</time>
      </trkpt>
      <trkpt lat="43.71659" lon="1.46571">
        <ele>180.4</ele>
        <time>2014-10-19T09:02:00Z</time>
      </trkpt>
      <trkpt lat="43.71635" lon="1.46578">
        <ele>181.1</ele>
        <time>2014-10-19T09:02:10Z</time>
      </trkpt>
      <trkpt lat="43.71617" lon="1.46577">
        <ele>181.5</ele>
        <time>2014-10-19T09:02:17Z</time>
      </trkpt>
      <trkpt lat="43.71614" lon="1.46578">
        <ele>181.6</ele>
        <time>2014-10-19T09:02:18Z</time>
      </trkpt>
      <trkpt lat="43.71611" lon="1.46579">
        <ele>181.6</ele>
        <time>2014-10-19T09:02:19Z</time>
      </trkpt>
      <trkpt lat="43.71608" lon="1.4658">
        <ele>181.7</ele>
        <time>2014-10-19T09:02:20Z</time>
      </trkpt>
      <trkpt lat="43.71562" lon="1.46594">
        <ele>182.2</ele>
        <time>2014-10-19T09:02:35Z</time>
      </trkpt>
      <trkpt lat="43.71552" lon="1.46596">
        <ele>182.3</ele>
        <time>2014-10-19T09:02:39Z</time>
      </trkpt>
      <trkpt lat="43.71549" lon="1.46595">
        <ele>182.3</ele>
        <time>2014-10-19T09:02:40Z</time>
      </trkpt>
      <trkpt lat="43.71544" lon="1.46596">
        <ele>182.3</ele>
        <time>2014-10-19T09:02:42Z</time>
      </trkpt>
      <trkpt lat="43.71531" lon="1.466">
        <ele>182.5</ele>
        <time>2014-10-19T09:02:47Z</time>
      </trkpt>
      <trkpt lat="43.71518" lon="1.46607">
        <ele>182.7</ele>
        <time>2014-10-19T09:02:51Z</time>
      </trkpt>
      <trkpt lat="43.71514" lon="1.46608">
        <ele>182.8</ele>
        <time>2014-10-19T09:02:52Z</time>
      </trkpt>
      <trkpt lat="43.71511" lon="1.46609">
        <ele>182.9</ele>
        <time>2014-10-19T09:02:53Z</time>
      </trkpt>
      <trkpt lat="43.71507" lon="1.46609">
        <ele>183</ele>
        <time>2014-10-19T09:02:54Z</time>
      </trkpt>
      <trkpt lat="43.71503" lon="1.4661">
        <ele>183</ele>
        <time>2014-10-19T09:02:55Z</time>
      </trkpt>
      <trkpt lat="43.715" lon="1.46615">
        <ele>183.1</ele>
        <time>2014-10-19T09:02:56Z</time>
      </trkpt>
      <trkpt lat="43.71497" lon="1.46616">
        <ele>183.1</ele>
        <time>2014-10-19T09:02:57Z</time>
      </trkpt>
      <trkpt lat="43.71487" lon="1.4662">
        <ele>183.3</ele>
        <time>2014-10-19T09:03:00Z</time>
      </trkpt>
      <trkpt lat="43.71479" lon="1.46626">
        <ele>183.5</ele>
        <time>2014-10-19T09:03:03Z</time>
      </trkpt>
      <trkpt lat="43.71476" lon="1.46628">
        <ele>183.6</ele>
        <time>2014-10-19T09:03:04Z</time>
      </trkpt>
      <trkpt lat="43.71473" lon="1.4663">
        <ele>183.6</ele>
        <time>2014-10-19T09:03:05Z</time>
      </trkpt>
      <trkpt lat="43.7147" lon="1.46632">
        <ele>183.6</ele>
        <time>2014-10-19T09:03:06Z</time>
      </trkpt>
      <trkpt lat="43.71459" lon="1.46641">
        <ele>183.8</ele>
        <time>2014-10-19T09:03:10Z</time>
      </trkpt>
      <trkpt lat="43.71451" lon="1.46652">
        <ele>183.8</ele>
        <time>2014-10-19T09:03:14Z</time>
      </trkpt>
      <trkpt lat="43.71448" lon="1.46654">
        <ele>183.9</ele>
        <time>2014-10-19T09:03:15Z</time>
      </trkpt>
      <trkpt lat="43.71446" lon="1.46657">
        <ele>183.9</ele>
        <time>2014-10-19T09:03:16Z</time>
      </trkpt>
      <trkpt lat="43.71443" lon="1.4666">
        <ele>183.9</ele>
        <time>2014-10-19T09:03:17Z</time>
      </trkpt>
      <trkpt lat="43.71433" lon="1.46672">
        <ele>183.9</ele>
        <time>2014-10-19T09:03:20Z</time>
      </trkpt>
      <trkpt lat="43.7143" lon="1.46675">
        <ele>183.9</ele>
        <time>2014-10-19T09:03:21Z</time>
      </trkpt>
      <trkpt lat="43.71427" lon="1.46678">
        <ele>183.9</ele>
        <time>2014-10-19T09:03:22Z</time>
      </trkpt>
      <trkpt lat="43.71417" lon="1.46689">
        <ele>183.8</ele>
        <time>2014-10-19T09:03:26Z</time>
      </trkpt>
      <trkpt lat="43.71415" lon="1.46692">
        <ele>183.8</ele>
        <time>2014-10-19T09:03:27Z</time>
      </trkpt>
      <trkpt lat="43.71405" lon="1.46699">
        <ele>183.8</ele>
        <time>2014-10-19T09:03:31Z</time>
      </trkpt>
      <trkpt lat="43.71394" lon="1.46708">
        <ele>183.8</ele>
        <time>2014-10-19T09:03:36Z</time>
      </trkpt>
      <trkpt lat="43.71387" lon="1.46713">
        <ele>184</ele>
        <time>2014-10-19T09:03:40Z</time>
      </trkpt>
      <trkpt lat="43.71384" lon="1.46716">
        <ele>184.1</ele>
        <time>2014-10-19T09:03:41Z</time>
      </trkpt>
      <trkpt lat="43.71382" lon="1.46717">
        <ele>184.2</ele>
        <time>2014-10-19T09:03:42Z</time>
      </trkpt>
      <trkpt lat="43.71367" lon="1.46721">
        <ele>184.4</ele>
        <time>2014-10-19T09:03:48Z</time>
      </trkpt>
      <trkpt lat="43.71362" lon="1.46721">
        <ele>184.5</ele>
        <time>2014-10-19T09:03:50Z</time>
      </trkpt>
      <trkpt lat="43.71352" lon="1.4672">
        <ele>184.7</ele>
        <time>2014-10-19T09:03:54Z</time>
      </trkpt>
      <trkpt lat="43.71334" lon="1.46724">
        <ele>185</ele>
        <time>2014-10-19T09:04:01Z</time>
      </trkpt>
      <trkpt lat="43.71322" lon="1.46726">
        <ele>185.2</ele>
        <time>2014-10-19T09:04:05Z</time>
      </trkpt>
      <trkpt lat="43.71319" lon="1.46727">
        <ele>185.2</ele>
        <time>2014-10-19T09:04:06Z</time>
      </trkpt>
      <trkpt lat="43.71316" lon="1.46727">
        <ele>185.2</ele>
        <time>2014-10-19T09:04:07Z</time>
      </trkpt>
      <trkpt lat="43.71314" lon="1.46728">
        <ele>185.3</ele>
        <time>2014-10-19T09:04:08Z</time>
      </trkpt>
      <trkpt lat="43.71311" lon="1.46729">
        <ele>185.3</ele>
        <time>2014-10-19T09:04:09Z</time>
      </trkpt>
      <trkpt lat="43.71308" lon="1.4673">
        <ele>185.3</ele>
        <time>2014-10-19T09:04:10Z</time>
      </trkpt>
      <trkpt lat="43.71305" lon="1.4673">
        <ele>185.3</ele>
        <time>2014-10-19T09:04:11Z</time>
      </trkpt>
      <trkpt lat="43.71302" lon="1.46733">
        <ele>185.3</ele>
        <time>2014-10-19T09:04:12Z</time>
      </trkpt>
      <trkpt lat="43.71298" lon="1.46733">
        <ele>185.3</ele>
        <time>2014-10-19T09:04:13Z</time>
      </trkpt>
      <trkpt lat="43.71289" lon="1.46736">
        <ele>185.4</ele>
        <time>2014-10-19T09:04:16Z</time>
      </trkpt>
      <trkpt lat="43.71278" lon="1.46739">
        <ele>185.8</ele>
        <time>2014-10-19T09:04:20Z</time>
      </trkpt>
      <trkpt lat="43.71266" lon="1.46746">
        <ele>186</ele>
        <time>2014-10-19T09:04:24Z</time>
      </trkpt>
      <trkpt lat="43.71262" lon="1.46747">
        <ele>186.1</ele>
        <time>2014-10-19T09:04:25Z</time>
      </trkpt>
      <trkpt lat="43.7126" lon="1.46748">
        <ele>186.2</ele>
        <time>2014-10-19T09:04:26Z</time>
      </trkpt>
      <trkpt lat="43.71256" lon="1.46751">
        <ele>186.3</ele>
        <time>2014-10-19T09:04:27Z</time>
      </trkpt>
      <trkpt lat="43.71252" lon="1.46752">
        <ele>186.4</ele>
        <time>2014-10-19T09:04:28Z</time>
      </trkpt>
      <trkpt lat="43.71249" lon="1.46753">
        <ele>186.4</ele>
        <time>2014-10-19T09:04:29Z</time>
      </trkpt>
      <trkpt lat="43.71246" lon="1.46754">
        <ele>186.5</ele>
        <time>2014-10-19T09:04:30Z</time>
      </trkpt>
      <trkpt lat="43.71243" lon="1.46758">
        <ele>186.6</ele>
        <time>2014-10-19T09:04:31Z</time>
      </trkpt>
      <trkpt lat="43.7124" lon="1.4676">
        <ele>186.6</ele>
        <time>2014-10-19T09:04:32Z</time>
      </trkpt>
      <trkpt lat="43.71229" lon="1.46765">
        <ele>186.9</ele>
        <time>2014-10-19T09:04:36Z</time>
      </trkpt>
      <trkpt lat="43.71216" lon="1.46769">
        <ele>187.3</ele>
        <time>2014-10-19T09:04:41Z</time>
      </trkpt>
      <trkpt lat="43.71205" lon="1.46775">
        <ele>187.5</ele>
        <time>2014-10-19T09:04:45Z</time>
      </trkpt>
      <trkpt lat="43.71192" lon="1.46778">
        <ele>187.9</ele>
        <time>2014-10-19T09:04:49Z</time>
      </trkpt>
      <trkpt lat="43.71189" lon="1.4678">
        <ele>188</ele>
        <time>2014-10-19T09:04:50Z</time>
      </trkpt>
      <trkpt lat="43.71181" lon="1.46783">
        <ele>188.2</ele>
        <time>2014-10-19T09:04:53Z</time>
      </trkpt>
      <trkpt lat="43.71176" lon="1.46786">
        <ele>188.3</ele>
        <time>2014-10-19T09:04:55Z</time>
      </trkpt>
      <trkpt lat="43.71167" lon="1.46789">
        <ele>188.6</ele>
        <time>2014-10-19T09:04:58Z</time>
      </trkpt>
      <trkpt lat="43.71164" lon="1.46791">
        <ele>188.6</ele>
        <time>2014-10-19T09:04:59Z</time>
      </trkpt>
      <trkpt lat="43.71159" lon="1.46795">
        <ele>188.8</ele>
        <time>2014-10-19T09:05:01Z</time>
      </trkpt>
      <trkpt lat="43.71155" lon="1.46799">
        <ele>188.9</ele>
        <time>2014-10-19T09:05:03Z</time>
      </trkpt>
      <trkpt lat="43.71149" lon="1.46803">
        <ele>189.1</ele>
        <time>2014-10-19T09:05:05Z</time>
      </trkpt>
      <trkpt lat="43.71146" lon="1.46805">
        <ele>189.2</ele>
        <time>2014-10-19T09:05:06Z</time>
      </trkpt>
      <trkpt lat="43.71144" lon="1.46807">
        <ele>189.3</ele>
        <time>2014-10-19T09:05:07Z</time>
      </trkpt>
      <trkpt lat="43.71124" lon="1.46827">
        <ele>190</ele>
        <time>2014-10-19T09:05:16Z</time>
      </trkpt>
      <trkpt lat="43.71121" lon="1.46831">
        <ele>190.2</ele>
        <time>2014-10-19T09:05:18Z</time>
      </trkpt>
      <trkpt lat="43.71118" lon="1.46834">
        <ele>190.3</ele>
        <time>2014-10-19T09:05:19Z</time>
      </trkpt>
      <trkpt lat="43.71115" lon="1.46836">
        <ele>190.4</ele>
        <time>2014-10-19T09:05:20Z</time>
      </trkpt>
      <trkpt lat="43.71109" lon="1.46839">
        <ele>190.6</ele>
        <time>2014-10-19T09:05:22Z</time>
      </trkpt>
      <trkpt lat="43.71092" lon="1.46858">
        <ele>191</ele>
        <time>2014-10-19T09:05:29Z</time>
      </trkpt>
      <trkpt lat="43.71089" lon="1.46861">
        <ele>191</ele>
        <time>2014-10-19T09:05:30Z</time>
      </trkpt>
      <trkpt lat="43.71066" lon="1.46894">
        <ele>191.5</ele>
        <time>2014-10-19T09:05:41Z</time>
      </trkpt>
      <trkpt lat="43.71061" lon="1.46903">
        <ele>191.6</ele>
        <time>2014-10-19T09:05:44Z</time>
      </trkpt>
      <trkpt lat="43.71053" lon="1.46916">
        <ele>191.8</ele>
        <time>2014-10-19T09:05:48Z</time>
      </trkpt>
      <trkpt lat="43.71046" lon="1.46925">
        <ele>191.9</ele>
        <time>2014-10-19T09:05:51Z</time>
      </trkpt>
      <trkpt lat="43.71044" lon="1.46928">
        <ele>192</ele>
        <time>2014-10-19T09:05:52Z</time>
      </trkpt>
      <trkpt lat="43.7104" lon="1.46934">
        <ele>192.1</ele>
        <time>2014-10-19T09:05:54Z</time>
      </trkpt>
      <trkpt lat="43.71036" lon="1.46939">
        <ele>192.2</ele>
        <time>2014-10-19T09:05:56Z</time>
      </trkpt>
      <trkpt lat="43.71034" lon="1.46942">
        <ele>192.3</ele>
        <time>2014-10-19T09:05:57Z</time>
      </trkpt>
      <trkpt lat="43.71029" lon="1.46952">
        <ele>192.4</ele>
        <time>2014-10-19T09:06:00Z</time>
      </trkpt>
      <trkpt lat="43.71022" lon="1.46965">
        <ele>192.7</ele>
        <time>2014-10-19T09:06:04Z</time>
      </trkpt>
      <trkpt lat="43.7102" lon="1.46968">
        <ele>192.8</ele>
        <time>2014-10-19T09:06:05Z</time>
      </trkpt>
      <trkpt lat="43.71008" lon="1.46991">
        <ele>193</ele>
        <time>2014-10-19T09:06:13Z</time>
      </trkpt>
      <trkpt lat="43.71002" lon="1.47001">
        <ele>193</ele>
        <time>2014-10-19T09:06:16Z</time>
      </trkpt>
      <trkpt lat="43.71" lon="1.47003">
        <ele>193</ele>
        <time>2014-10-19T09:06:17Z</time>
      </trkpt>
      <trkpt lat="43.70984" lon="1.47028">
        <ele>192.6</ele>
        <time>2014-10-19T09:06:26Z</time>
      </trkpt>
      <trkpt lat="43.70973" lon="1.47046">
        <ele>192.1</ele>
        <time>2014-10-19T09:06:31Z</time>
      </trkpt>
      <trkpt lat="43.70964" lon="1.4706">
        <ele>191.8</ele>
        <time>2014-10-19T09:06:35Z</time>
      </trkpt>
      <trkpt lat="43.70958" lon="1.4707">
        <ele>191.7</ele>
        <time>2014-10-19T09:06:38Z</time>
      </trkpt>
      <trkpt lat="43.70955" lon="1.47074">
        <ele>191.6</ele>
        <time>2014-10-19T09:06:39Z</time>
      </trkpt>
      <trkpt lat="43.70947" lon="1.47088">
        <ele>191.4</ele>
        <time>2014-10-19T09:06:43Z</time>
      </trkpt>
      <trkpt lat="43.70945" lon="1.47091">
        <ele>191.4</ele>
        <time>2014-10-19T09:06:44Z</time>
      </trkpt>
      <trkpt lat="43.70929" lon="1.47114">
        <ele>191.1</ele>
        <time>2014-10-19T09:06:52Z</time>
      </trkpt>
      <trkpt lat="43.70926" lon="1.47116">
        <ele>191.1</ele>
        <time>2014-10-19T09:06:53Z</time>
      </trkpt>
      <trkpt lat="43.70923" lon="1.4712">
        <ele>191.1</ele>
        <time>2014-10-19T09:06:54Z</time>
      </trkpt>
      <trkpt lat="43.7092" lon="1.47122">
        <ele>191</ele>
        <time>2014-10-19T09:06:56Z</time>
      </trkpt>
      <trkpt lat="43.70917" lon="1.47123">
        <ele>191</ele>
        <time>2014-10-19T09:06:58Z</time>
      </trkpt>
      <trkpt lat="43.70912" lon="1.47123">
        <ele>191</ele>
        <time>2014-10-19T09:06:59Z</time>
      </trkpt>
      <trkpt lat="43.70907" lon="1.47123">
        <ele>191</ele>
        <time>2014-10-19T09:07:00Z</time>
      </trkpt>
      <trkpt lat="43.70904" lon="1.47121">
        <ele>191.1</ele>
        <time>2014-10-19T09:07:02Z</time>
      </trkpt>
      <trkpt lat="43.70897" lon="1.47116">
        <ele>191.1</ele>
        <time>2014-10-19T09:07:07Z</time>
      </trkpt>
      <trkpt lat="43.70891" lon="1.47105">
        <ele>191.2</ele>
        <time>2014-10-19T09:07:11Z</time>
      </trkpt>
      <trkpt lat="43.70889" lon="1.47101">
        <ele>191.3</ele>
        <time>2014-10-19T09:07:12Z</time>
      </trkpt>
      <trkpt lat="43.70874" lon="1.47074">
        <ele>191.7</ele>
        <time>2014-10-19T09:07:22Z</time>
      </trkpt>
      <trkpt lat="43.70862" lon="1.47056">
        <ele>192.2</ele>
        <time>2014-10-19T09:07:28Z</time>
      </trkpt>
      <trkpt lat="43.70856" lon="1.4704">
        <ele>192.7</ele>
        <time>2014-10-19T09:07:33Z</time>
      </trkpt>
      <trkpt lat="43.70847" lon="1.47023">
        <ele>193.2</ele>
        <time>2014-10-19T09:07:38Z</time>
      </trkpt>
      <trkpt lat="43.70846" lon="1.47019">
        <ele>193.3</ele>
        <time>2014-10-19T09:07:39Z</time>
      </trkpt>
      <trkpt lat="43.70845" lon="1.47015">
        <ele>193.4</ele>
        <time>2014-10-19T09:07:40Z</time>
      </trkpt>
      <trkpt lat="43.70841" lon="1.47008">
        <ele>193.6</ele>
        <time>2014-10-19T09:07:41Z</time>
      </trkpt>
      <trkpt lat="43.7084" lon="1.47005">
        <ele>193.7</ele>
        <time>2014-10-19T09:07:42Z</time>
      </trkpt>
      <trkpt lat="43.70838" lon="1.47">
        <ele>193.8</ele>
        <time>2014-10-19T09:07:43Z</time>
      </trkpt>
      <trkpt lat="43.70836" lon="1.46997">
        <ele>193.9</ele>
        <time>2014-10-19T09:07:44Z</time>
      </trkpt>
      <trkpt lat="43.70829" lon="1.46982">
        <ele>194.4</ele>
        <time>2014-10-19T09:07:48Z</time>
      </trkpt>
      <trkpt lat="43.70825" lon="1.46975">
        <ele>194.6</ele>
        <time>2014-10-19T09:07:50Z</time>
      </trkpt>
      <trkpt lat="43.70818" lon="1.46962">
        <ele>195</ele>
        <time>2014-10-19T09:07:54Z</time>
      </trkpt>
      <trkpt lat="43.70816" lon="1.46958">
        <ele>195.1</ele>
        <time>2014-10-19T09:07:55Z</time>
      </trkpt>
      <trkpt lat="43.70805" lon="1.46939">
        <ele>195.6</ele>
        <time>2014-10-19T09:08:00Z</time>
      </trkpt>
      <trkpt lat="43.70793" lon="1.46931">
        <ele>196</ele>
        <time>2014-10-19T09:08:03Z</time>
      </trkpt>
      <trkpt lat="43.7079" lon="1.46929">
        <ele>196</ele>
        <time>2014-10-19T09:08:04Z</time>
      </trkpt>
      <trkpt lat="43.70771" lon="1.46912">
        <ele>196.4</ele>
        <time>2014-10-19T09:08:13Z</time>
      </trkpt>
      <trkpt lat="43.70764" lon="1.46905">
        <ele>196.5</ele>
        <time>2014-10-19T09:08:17Z</time>
      </trkpt>
      <trkpt lat="43.70742" lon="1.4688">
        <ele>197.2</ele>
        <time>2014-10-19T09:08:32Z</time>
      </trkpt>
      <trkpt lat="43.70739" lon="1.46878">
        <ele>197.3</ele>
        <time>2014-10-19T09:08:33Z</time>
      </trkpt>
      <trkpt lat="43.70732" lon="1.46871">
        <ele>197.5</ele>
        <time>2014-10-19T09:08:37Z</time>
      </trkpt>
      <trkpt lat="43.70729" lon="1.46869">
        <ele>197.7</ele>
        <time>2014-10-19T09:08:39Z</time>
      </trkpt>
      <trkpt lat="43.70726" lon="1.46867">
        <ele>197.8</ele>
        <time>2014-10-19T09:08:41Z</time>
      </trkpt>
      <trkpt lat="43.70704" lon="1.46851">
        <ele>198.7</ele>
        <time>2014-10-19T09:08:49Z</time>
      </trkpt>
      <trkpt lat="43.707" lon="1.46849">
        <ele>198.9</ele>
        <time>2014-10-19T09:08:50Z</time>
      </trkpt>
      <trkpt lat="43.70696" lon="1.46846">
        <ele>199</ele>
        <time>2014-10-19T09:08:52Z</time>
      </trkpt>
      <trkpt lat="43.7069" lon="1.46845">
        <ele>199.3</ele>
        <time>2014-10-19T09:08:53Z</time>
      </trkpt>
      <trkpt lat="43.7068" lon="1.46836">
        <ele>199.8</ele>
        <time>2014-10-19T09:08:56Z</time>
      </trkpt>
      <trkpt lat="43.70677" lon="1.46834">
        <ele>199.9</ele>
        <time>2014-10-19T09:08:57Z</time>
      </trkpt>
      <trkpt lat="43.70674" lon="1.46833">
        <ele>200</ele>
        <time>2014-10-19T09:08:58Z</time>
      </trkpt>
      <trkpt lat="43.70669" lon="1.46832">
        <ele>200.2</ele>
        <time>2014-10-19T09:08:59Z</time>
      </trkpt>
      <trkpt lat="43.70658" lon="1.46826">
        <ele>200.7</ele>
        <time>2014-10-19T09:09:02Z</time>
      </trkpt>
      <trkpt lat="43.70655" lon="1.46825">
        <ele>200.9</ele>
        <time>2014-10-19T09:09:03Z</time>
      </trkpt>
      <trkpt lat="43.70651" lon="1.46824">
        <ele>201</ele>
        <time>2014-10-19T09:09:04Z</time>
      </trkpt>
      <trkpt lat="43.70648" lon="1.46823">
        <ele>201.2</ele>
        <time>2014-10-19T09:09:05Z</time>
      </trkpt>
      <trkpt lat="43.70644" lon="1.46822">
        <ele>201.3</ele>
        <time>2014-10-19T09:09:06Z</time>
      </trkpt>
      <trkpt lat="43.70636" lon="1.46809">
        <ele>202</ele>
        <time>2014-10-19T09:09:15Z</time>
      </trkpt>
      <trkpt lat="43.70621" lon="1.46799">
        <ele>202.7</ele>
        <time>2014-10-19T09:09:20Z</time>
      </trkpt>
      <trkpt lat="43.70618" lon="1.46798">
        <ele>202.7</ele>
        <time>2014-10-19T09:09:21Z</time>
      </trkpt>
      <trkpt lat="43.70609" lon="1.46789">
        <ele>202.8</ele>
        <time>2014-10-19T09:09:25Z</time>
      </trkpt>
      <trkpt lat="43.70602" lon="1.46784">
        <ele>202.8</ele>
        <time>2014-10-19T09:09:27Z</time>
      </trkpt>
      <trkpt lat="43.70598" lon="1.46781">
        <ele>202.8</ele>
        <time>2014-10-19T09:09:28Z</time>
      </trkpt>
      <trkpt lat="43.70595" lon="1.46779">
        <ele>202.7</ele>
        <time>2014-10-19T09:09:29Z</time>
      </trkpt>
      <trkpt lat="43.7059" lon="1.46775">
        <ele>202.7</ele>
        <time>2014-10-19T09:09:30Z</time>
      </trkpt>
      <trkpt lat="43.70587" lon="1.46773">
        <ele>202.8</ele>
        <time>2014-10-19T09:09:31Z</time>
      </trkpt>
      <trkpt lat="43.70584" lon="1.4677">
        <ele>202.8</ele>
        <time>2014-10-19T09:09:32Z</time>
      </trkpt>
      <trkpt lat="43.70582" lon="1.46768">
        <ele>202.8</ele>
        <time>2014-10-19T09:09:33Z</time>
      </trkpt>
      <trkpt lat="43.70579" lon="1.46766">
        <ele>202.8</ele>
        <time>2014-10-19T09:09:34Z</time>
      </trkpt>
      <trkpt lat="43.70573" lon="1.4676">
        <ele>202.8</ele>
        <time>2014-10-19T09:09:36Z</time>
      </trkpt>
      <trkpt lat="43.70558" lon="1.46745">
        <ele>203.1</ele>
        <time>2014-10-19T09:09:41Z</time>
      </trkpt>
      <trkpt lat="43.70551" lon="1.46738">
        <ele>203.3</ele>
        <time>2014-10-19T09:09:44Z</time>
      </trkpt>
      <trkpt lat="43.70548" lon="1.46735">
        <ele>203.3</ele>
        <time>2014-10-19T09:09:45Z</time>
      </trkpt>
      <trkpt lat="43.70545" lon="1.46733">
        <ele>203.4</ele>
        <time>2014-10-19T09:09:46Z</time>
      </trkpt>
      <trkpt lat="43.70542" lon="1.4673">
        <ele>203.5</ele>
        <time>2014-10-19T09:09:47Z</time>
      </trkpt>
      <trkpt lat="43.7054" lon="1.46727">
        <ele>203.6</ele>
        <time>2014-10-19T09:09:48Z</time>
      </trkpt>
      <trkpt lat="43.70521" lon="1.46715">
        <ele>204.4</ele>
        <time>2014-10-19T09:09:54Z</time>
      </trkpt>
      <trkpt lat="43.70499" lon="1.467">
        <ele>205</ele>
        <time>2014-10-19T09:10:01Z</time>
      </trkpt>
      <trkpt lat="43.70493" lon="1.46698">
        <ele>205.2</ele>
        <time>2014-10-19T09:10:03Z</time>
      </trkpt>
      <trkpt lat="43.7049" lon="1.46696">
        <ele>205.2</ele>
        <time>2014-10-19T09:10:04Z</time>
      </trkpt>
      <trkpt lat="43.70486" lon="1.46693">
        <ele>205.3</ele>
        <time>2014-10-19T09:10:05Z</time>
      </trkpt>
      <trkpt lat="43.70483" lon="1.46691">
        <ele>205.4</ele>
        <time>2014-10-19T09:10:06Z</time>
      </trkpt>
      <trkpt lat="43.70474" lon="1.46685">
        <ele>205.6</ele>
        <time>2014-10-19T09:10:09Z</time>
      </trkpt>
      <trkpt lat="43.70471" lon="1.46683">
        <ele>205.7</ele>
        <time>2014-10-19T09:10:10Z</time>
      </trkpt>
      <trkpt lat="43.70469" lon="1.46681">
        <ele>205.7</ele>
        <time>2014-10-19T09:10:11Z</time>
      </trkpt>
      <trkpt lat="43.70461" lon="1.46674">
        <ele>205.9</ele>
        <time>2014-10-19T09:10:14Z</time>
      </trkpt>
      <trkpt lat="43.70458" lon="1.46671">
        <ele>206</ele>
        <time>2014-10-19T09:10:15Z</time>
      </trkpt>
      <trkpt lat="43.70434" lon="1.46653">
        <ele>205.6</ele>
        <time>2014-10-19T09:10:24Z</time>
      </trkpt>
      <trkpt lat="43.7043" lon="1.46652">
        <ele>205.5</ele>
        <time>2014-10-19T09:10:25Z</time>
      </trkpt>
      <trkpt lat="43.70419" lon="1.46649">
        <ele>205.3</ele>
        <time>2014-10-19T09:10:28Z</time>
      </trkpt>
      <trkpt lat="43.70415" lon="1.4665">
        <ele>205.3</ele>
        <time>2014-10-19T09:10:29Z</time>
      </trkpt>
      <trkpt lat="43.70409" lon="1.46651">
        <ele>205.2</ele>
        <time>2014-10-19T09:10:31Z</time>
      </trkpt>
      <trkpt lat="43.70404" lon="1.4665">
        <ele>205.1</ele>
        <time>2014-10-19T09:10:33Z</time>
      </trkpt>
      <trkpt lat="43.704" lon="1.46649">
        <ele>205</ele>
        <time>2014-10-19T09:10:35Z</time>
      </trkpt>
      <trkpt lat="43.70396" lon="1.46648">
        <ele>204.9</ele>
        <time>2014-10-19T09:10:36Z</time>
      </trkpt>
      <trkpt lat="43.70393" lon="1.46648">
        <ele>204.9</ele>
        <time>2014-10-19T09:10:37Z</time>
      </trkpt>
      <trkpt lat="43.70384" lon="1.4665">
        <ele>204.8</ele>
        <time>2014-10-19T09:10:40Z</time>
      </trkpt>
      <trkpt lat="43.70373" lon="1.4666">
        <ele>204.7</ele>
        <time>2014-10-19T09:10:45Z</time>
      </trkpt>
      <trkpt lat="43.70367" lon="1.46664">
        <ele>204.6</ele>
        <time>2014-10-19T09:10:47Z</time>
      </trkpt>
      <trkpt lat="43.70365" lon="1.46665">
        <ele>204.5</ele>
        <time>2014-10-19T09:10:48Z</time>
      </trkpt>
      <trkpt lat="43.70362" lon="1.46667">
        <ele>204.4</ele>
        <time>2014-10-19T09:10:49Z</time>
      </trkpt>
      <trkpt lat="43.70358" lon="1.46669">
        <ele>204.4</ele>
        <time>2014-10-19T09:10:51Z</time>
      </trkpt>
      <trkpt lat="43.70355" lon="1.46671">
        <ele>204.3</ele>
        <time>2014-10-19T09:10:52Z</time>
      </trkpt>
      <trkpt lat="43.70343" lon="1.4668">
        <ele>204.1</ele>
        <time>2014-10-19T09:10:56Z</time>
      </trkpt>
      <trkpt lat="43.70339" lon="1.46682">
        <ele>204.1</ele>
        <time>2014-10-19T09:10:57Z</time>
      </trkpt>
      <trkpt lat="43.70336" lon="1.46684">
        <ele>204</ele>
        <time>2014-10-19T09:10:58Z</time>
      </trkpt>
      <trkpt lat="43.70333" lon="1.46686">
        <ele>204</ele>
        <time>2014-10-19T09:10:59Z</time>
      </trkpt>
      <trkpt lat="43.70331" lon="1.46688">
        <ele>204.1</ele>
        <time>2014-10-19T09:11:00Z</time>
      </trkpt>
      <trkpt lat="43.70328" lon="1.46691">
        <ele>204.1</ele>
        <time>2014-10-19T09:11:01Z</time>
      </trkpt>
      <trkpt lat="43.70325" lon="1.46692">
        <ele>204.1</ele>
        <time>2014-10-19T09:11:02Z</time>
      </trkpt>
      <trkpt lat="43.70321" lon="1.46695">
        <ele>204.1</ele>
        <time>2014-10-19T09:11:04Z</time>
      </trkpt>
      <trkpt lat="43.70316" lon="1.46698">
        <ele>204.1</ele>
        <time>2014-10-19T09:11:06Z</time>
      </trkpt>
      <trkpt lat="43.70313" lon="1.467">
        <ele>204.1</ele>
        <time>2014-10-19T09:11:07Z</time>
      </trkpt>
      <trkpt lat="43.7031" lon="1.46704">
        <ele>204.2</ele>
        <time>2014-10-19T09:11:09Z</time>
      </trkpt>
      <trkpt lat="43.70306" lon="1.46705">
        <ele>204.2</ele>
        <time>2014-10-19T09:11:11Z</time>
      </trkpt>
      <trkpt lat="43.70296" lon="1.46707">
        <ele>204</ele>
        <time>2014-10-19T09:11:16Z</time>
      </trkpt>
      <trkpt lat="43.70292" lon="1.46709">
        <ele>204</ele>
        <time>2014-10-19T09:11:18Z</time>
      </trkpt>
      <trkpt lat="43.70278" lon="1.46726">
        <ele>203.8</ele>
        <time>2014-10-19T09:11:24Z</time>
      </trkpt>
      <trkpt lat="43.70267" lon="1.46735">
        <ele>203.6</ele>
        <time>2014-10-19T09:11:29Z</time>
      </trkpt>
      <trkpt lat="43.70264" lon="1.46739">
        <ele>203.6</ele>
        <time>2014-10-19T09:11:30Z</time>
      </trkpt>
      <trkpt lat="43.70261" lon="1.46744">
        <ele>203.6</ele>
        <time>2014-10-19T09:11:32Z</time>
      </trkpt>
      <trkpt lat="43.70257" lon="1.4675">
        <ele>203.6</ele>
        <time>2014-10-19T09:11:34Z</time>
      </trkpt>
      <trkpt lat="43.70255" lon="1.46753">
        <ele>203.6</ele>
        <time>2014-10-19T09:11:35Z</time>
      </trkpt>
      <trkpt lat="43.70252" lon="1.4676">
        <ele>203.7</ele>
        <time>2014-10-19T09:11:37Z</time>
      </trkpt>
      <trkpt lat="43.70248" lon="1.46764">
        <ele>203.7</ele>
        <time>2014-10-19T09:11:39Z</time>
      </trkpt>
      <trkpt lat="43.70245" lon="1.46768">
        <ele>203.8</ele>
        <time>2014-10-19T09:11:41Z</time>
      </trkpt>
      <trkpt lat="43.70242" lon="1.46773">
        <ele>203.8</ele>
        <time>2014-10-19T09:11:43Z</time>
      </trkpt>
      <trkpt lat="43.7023" lon="1.46808">
        <ele>204.7</ele>
        <time>2014-10-19T09:11:50Z</time>
      </trkpt>
      <trkpt lat="43.70224" lon="1.46823">
        <ele>205</ele>
        <time>2014-10-19T09:11:54Z</time>
      </trkpt>
      <trkpt lat="43.70214" lon="1.46846">
        <ele>205.7</ele>
        <time>2014-10-19T09:12:00Z</time>
      </trkpt>
      <trkpt lat="43.702" lon="1.46868">
        <ele>206.2</ele>
        <time>2014-10-19T09:12:08Z</time>
      </trkpt>
      <trkpt lat="43.70194" lon="1.46878">
        <ele>206.4</ele>
        <time>2014-10-19T09:12:11Z</time>
      </trkpt>
      <trkpt lat="43.70188" lon="1.46893">
        <ele>206.3</ele>
        <time>2014-10-19T09:12:14Z</time>
      </trkpt>
      <trkpt lat="43.70186" lon="1.46898">
        <ele>206.3</ele>
        <time>2014-10-19T09:12:15Z</time>
      </trkpt>
      <trkpt lat="43.70178" lon="1.46914">
        <ele>206.2</ele>
        <time>2014-10-19T09:12:19Z</time>
      </trkpt>
      <trkpt lat="43.70176" lon="1.46919">
        <ele>206.2</ele>
        <time>2014-10-19T09:12:20Z</time>
      </trkpt>
      <trkpt lat="43.70174" lon="1.46923">
        <ele>206.2</ele>
        <time>2014-10-19T09:12:21Z</time>
      </trkpt>
      <trkpt lat="43.70155" lon="1.46937">
        <ele>205.6</ele>
        <time>2014-10-19T09:12:23Z</time>
      </trkpt>
      <trkpt lat="43.70152" lon="1.46941">
        <ele>205.6</ele>
        <time>2014-10-19T09:12:24Z</time>
      </trkpt>
      <trkpt lat="43.7014" lon="1.46964">
        <ele>205.6</ele>
        <time>2014-10-19T09:12:32Z</time>
      </trkpt>
      <trkpt lat="43.70135" lon="1.4697">
        <ele>205.6</ele>
        <time>2014-10-19T09:12:35Z</time>
      </trkpt>
      <trkpt lat="43.70132" lon="1.46975">
        <ele>205.6</ele>
        <time>2014-10-19T09:12:37Z</time>
      </trkpt>
      <trkpt lat="43.70127" lon="1.46981">
        <ele>205.6</ele>
        <time>2014-10-19T09:12:39Z</time>
      </trkpt>
      <trkpt lat="43.70122" lon="1.46992">
        <ele>205.8</ele>
        <time>2014-10-19T09:12:42Z</time>
      </trkpt>
      <trkpt lat="43.70112" lon="1.4701">
        <ele>206.1</ele>
        <time>2014-10-19T09:12:47Z</time>
      </trkpt>
      <trkpt lat="43.7011" lon="1.47018">
        <ele>206.2</ele>
        <time>2014-10-19T09:12:49Z</time>
      </trkpt>
      <trkpt lat="43.70108" lon="1.47021">
        <ele>206.3</ele>
        <time>2014-10-19T09:12:50Z</time>
      </trkpt>
      <trkpt lat="43.70107" lon="1.47026">
        <ele>206.4</ele>
        <time>2014-10-19T09:12:51Z</time>
      </trkpt>
      <trkpt lat="43.70105" lon="1.4703">
        <ele>206.5</ele>
        <time>2014-10-19T09:12:52Z</time>
      </trkpt>
      <trkpt lat="43.70103" lon="1.47034">
        <ele>206.5</ele>
        <time>2014-10-19T09:12:53Z</time>
      </trkpt>
      <trkpt lat="43.70101" lon="1.47037">
        <ele>206.6</ele>
        <time>2014-10-19T09:12:54Z</time>
      </trkpt>
      <trkpt lat="43.70097" lon="1.47041">
        <ele>206.7</ele>
        <time>2014-10-19T09:12:56Z</time>
      </trkpt>
      <trkpt lat="43.70095" lon="1.47046">
        <ele>206.7</ele>
        <time>2014-10-19T09:12:57Z</time>
      </trkpt>
      <trkpt lat="43.70045" lon="1.47085">
        <ele>207.1</ele>
        <time>2014-10-19T09:13:17Z</time>
      </trkpt>
      <trkpt lat="43.70043" lon="1.47089">
        <ele>207.1</ele>
        <time>2014-10-19T09:13:18Z</time>
      </trkpt>
      <trkpt lat="43.70041" lon="1.47094">
        <ele>207.3</ele>
        <time>2014-10-19T09:13:19Z</time>
      </trkpt>
      <trkpt lat="43.70039" lon="1.47098">
        <ele>207.4</ele>
        <time>2014-10-19T09:13:20Z</time>
      </trkpt>
      <trkpt lat="43.70037" lon="1.47102">
        <ele>207.5</ele>
        <time>2014-10-19T09:13:21Z</time>
      </trkpt>
      <trkpt lat="43.7003" lon="1.4711">
        <ele>207.8</ele>
        <time>2014-10-19T09:13:24Z</time>
      </trkpt>
      <trkpt lat="43.70023" lon="1.47123">
        <ele>208.2</ele>
        <time>2014-10-19T09:13:28Z</time>
      </trkpt>
      <trkpt lat="43.70014" lon="1.47138">
        <ele>208.3</ele>
        <time>2014-10-19T09:13:33Z</time>
      </trkpt>
      <trkpt lat="43.70011" lon="1.47142">
        <ele>208.4</ele>
        <time>2014-10-19T09:13:34Z</time>
      </trkpt>
      <trkpt lat="43.70008" lon="1.47145">
        <ele>208.4</ele>
        <time>2014-10-19T09:13:35Z</time>
      </trkpt>
      <trkpt lat="43.70006" lon="1.47149">
        <ele>208.4</ele>
        <time>2014-10-19T09:13:36Z</time>
      </trkpt>
      <trkpt lat="43.70003" lon="1.47156">
        <ele>208.5</ele>
        <time>2014-10-19T09:13:37Z</time>
      </trkpt>
      <trkpt lat="43.7" lon="1.47162">
        <ele>208.5</ele>
        <time>2014-10-19T09:13:38Z</time>
      </trkpt>
      <trkpt lat="43.69991" lon="1.47179">
        <ele>208.6</ele>
        <time>2014-10-19T09:13:41Z</time>
      </trkpt>
      <trkpt lat="43.69988" lon="1.47184">
        <ele>208.6</ele>
        <time>2014-10-19T09:13:42Z</time>
      </trkpt>
      <trkpt lat="43.69977" lon="1.47203">
        <ele>208.8</ele>
        <time>2014-10-19T09:13:46Z</time>
      </trkpt>
      <trkpt lat="43.69969" lon="1.4722">
        <ele>209</ele>
        <time>2014-10-19T09:13:50Z</time>
      </trkpt>
      <trkpt lat="43.69966" lon="1.47225">
        <ele>209.1</ele>
        <time>2014-10-19T09:13:51Z</time>
      </trkpt>
      <trkpt lat="43.69964" lon="1.47229">
        <ele>209.2</ele>
        <time>2014-10-19T09:13:52Z</time>
      </trkpt>
      <trkpt lat="43.69962" lon="1.47232">
        <ele>209.2</ele>
        <time>2014-10-19T09:13:53Z</time>
      </trkpt>
      <trkpt lat="43.69961" lon="1.47236">
        <ele>209.3</ele>
        <time>2014-10-19T09:13:54Z</time>
      </trkpt>
      <trkpt lat="43.69959" lon="1.47239">
        <ele>209.4</ele>
        <time>2014-10-19T09:13:55Z</time>
      </trkpt>
      <trkpt lat="43.6995" lon="1.47254">
        <ele>209.8</ele>
        <time>2014-10-19T09:13:58Z</time>
      </trkpt>
      <trkpt lat="43.69947" lon="1.4726">
        <ele>210</ele>
        <time>2014-10-19T09:14:02Z</time>
      </trkpt>
      <trkpt lat="43.69943" lon="1.47266">
        <ele>210.2</ele>
        <time>2014-10-19T09:14:03Z</time>
      </trkpt>
      <trkpt lat="43.69942" lon="1.4727">
        <ele>210.3</ele>
        <time>2014-10-19T09:14:04Z</time>
      </trkpt>
      <trkpt lat="43.6994" lon="1.47277">
        <ele>210.3</ele>
        <time>2014-10-19T09:14:06Z</time>
      </trkpt>
      <trkpt lat="43.69936" lon="1.47282">
        <ele>210.5</ele>
        <time>2014-10-19T09:14:08Z</time>
      </trkpt>
      <trkpt lat="43.69925" lon="1.47296">
        <ele>210.8</ele>
        <time>2014-10-19T09:14:13Z</time>
      </trkpt>
      <trkpt lat="43.69922" lon="1.47302">
        <ele>211</ele>
        <time>2014-10-19T09:14:15Z</time>
      </trkpt>
      <trkpt lat="43.69915" lon="1.47316">
        <ele>211.2</ele>
        <time>2014-10-19T09:14:19Z</time>
      </trkpt>
      <trkpt lat="43.69913" lon="1.47319">
        <ele>211.2</ele>
        <time>2014-10-19T09:14:20Z</time>
      </trkpt>
      <trkpt lat="43.69911" lon="1.47322">
        <ele>211.3</ele>
        <time>2014-10-19T09:14:21Z</time>
      </trkpt>
      <trkpt lat="43.69908" lon="1.47325">
        <ele>211.4</ele>
        <time>2014-10-19T09:14:22Z</time>
      </trkpt>
      <trkpt lat="43.69906" lon="1.47329">
        <ele>211.4</ele>
        <time>2014-10-19T09:14:23Z</time>
      </trkpt>
      <trkpt lat="43.69904" lon="1.47333">
        <ele>211.5</ele>
        <time>2014-10-19T09:14:24Z</time>
      </trkpt>
      <trkpt lat="43.69901" lon="1.47338">
        <ele>211.6</ele>
        <time>2014-10-19T09:14:26Z</time>
      </trkpt>
      <trkpt lat="43.69899" lon="1.47341">
        <ele>211.6</ele>
        <time>2014-10-19T09:14:27Z</time>
      </trkpt>
      <trkpt lat="43.69897" lon="1.47345">
        <ele>211.6</ele>
        <time>2014-10-19T09:14:28Z</time>
      </trkpt>
      <trkpt lat="43.69896" lon="1.4735">
        <ele>211.7</ele>
        <time>2014-10-19T09:14:29Z</time>
      </trkpt>
      <trkpt lat="43.69894" lon="1.47353">
        <ele>211.7</ele>
        <time>2014-10-19T09:14:30Z</time>
      </trkpt>
      <trkpt lat="43.6989" lon="1.47358">
        <ele>211.8</ele>
        <time>2014-10-19T09:14:32Z</time>
      </trkpt>
      <trkpt lat="43.69889" lon="1.47361">
        <ele>211.8</ele>
        <time>2014-10-19T09:14:33Z</time>
      </trkpt>
      <trkpt lat="43.69887" lon="1.47365">
        <ele>211.8</ele>
        <time>2014-10-19T09:14:34Z</time>
      </trkpt>
      <trkpt lat="43.69885" lon="1.47368">
        <ele>211.9</ele>
        <time>2014-10-19T09:14:35Z</time>
      </trkpt>
      <trkpt lat="43.69881" lon="1.47375">
        <ele>211.9</ele>
        <time>2014-10-19T09:14:37Z</time>
      </trkpt>
      <trkpt lat="43.6988" lon="1.47379">
        <ele>212</ele>
        <time>2014-10-19T09:14:38Z</time>
      </trkpt>
      <trkpt lat="43.69877" lon="1.47382">
        <ele>212.1</ele>
        <time>2014-10-19T09:14:39Z</time>
      </trkpt>
      <trkpt lat="43.69875" lon="1.47385">
        <ele>212.1</ele>
        <time>2014-10-19T09:14:40Z</time>
      </trkpt>
      <trkpt lat="43.69873" lon="1.47388">
        <ele>212.2</ele>
        <time>2014-10-19T09:14:41Z</time>
      </trkpt>
      <trkpt lat="43.69871" lon="1.47391">
        <ele>212.2</ele>
        <time>2014-10-19T09:14:42Z</time>
      </trkpt>
      <trkpt lat="43.69867" lon="1.47399">
        <ele>212.4</ele>
        <time>2014-10-19T09:14:44Z</time>
      </trkpt>
      <trkpt lat="43.69858" lon="1.47416">
        <ele>212.6</ele>
        <time>2014-10-19T09:14:49Z</time>
      </trkpt>
      <trkpt lat="43.69857" lon="1.4742">
        <ele>212.6</ele>
        <time>2014-10-19T09:14:50Z</time>
      </trkpt>
      <trkpt lat="43.69855" lon="1.47423">
        <ele>212.7</ele>
        <time>2014-10-19T09:14:51Z</time>
      </trkpt>
      <trkpt lat="43.69852" lon="1.47428">
        <ele>212.7</ele>
        <time>2014-10-19T09:14:52Z</time>
      </trkpt>
      <trkpt lat="43.6985" lon="1.47432">
        <ele>212.8</ele>
        <time>2014-10-19T09:14:53Z</time>
      </trkpt>
      <trkpt lat="43.69847" lon="1.47437">
        <ele>212.8</ele>
        <time>2014-10-19T09:14:54Z</time>
      </trkpt>
      <trkpt lat="43.69841" lon="1.47449">
        <ele>212.9</ele>
        <time>2014-10-19T09:14:57Z</time>
      </trkpt>
      <trkpt lat="43.69839" lon="1.47453">
        <ele>213</ele>
        <time>2014-10-19T09:14:58Z</time>
      </trkpt>
      <trkpt lat="43.69829" lon="1.47467">
        <ele>212.9</ele>
        <time>2014-10-19T09:15:02Z</time>
      </trkpt>
      <trkpt lat="43.69827" lon="1.4747">
        <ele>212.9</ele>
        <time>2014-10-19T09:15:03Z</time>
      </trkpt>
      <trkpt lat="43.69824" lon="1.47474">
        <ele>212.8</ele>
        <time>2014-10-19T09:15:04Z</time>
      </trkpt>
      <trkpt lat="43.69814" lon="1.47488">
        <ele>212.6</ele>
        <time>2014-10-19T09:15:08Z</time>
      </trkpt>
      <trkpt lat="43.69811" lon="1.47491">
        <ele>212.6</ele>
        <time>2014-10-19T09:15:09Z</time>
      </trkpt>
      <trkpt lat="43.69806" lon="1.47502">
        <ele>212.5</ele>
        <time>2014-10-19T09:15:12Z</time>
      </trkpt>
      <trkpt lat="43.69804" lon="1.47505">
        <ele>212.4</ele>
        <time>2014-10-19T09:15:13Z</time>
      </trkpt>
      <trkpt lat="43.69801" lon="1.47507">
        <ele>212.4</ele>
        <time>2014-10-19T09:15:14Z</time>
      </trkpt>
      <trkpt lat="43.69799" lon="1.4751">
        <ele>212.4</ele>
        <time>2014-10-19T09:15:15Z</time>
      </trkpt>
      <trkpt lat="43.69796" lon="1.47515">
        <ele>212.3</ele>
        <time>2014-10-19T09:15:17Z</time>
      </trkpt>
      <trkpt lat="43.69786" lon="1.4753">
        <ele>212.2</ele>
        <time>2014-10-19T09:15:22Z</time>
      </trkpt>
      <trkpt lat="43.69782" lon="1.47536">
        <ele>212.2</ele>
        <time>2014-10-19T09:15:24Z</time>
      </trkpt>
      <trkpt lat="43.69775" lon="1.47548">
        <ele>212.2</ele>
        <time>2014-10-19T09:15:28Z</time>
      </trkpt>
      <trkpt lat="43.69773" lon="1.47552">
        <ele>212.2</ele>
        <time>2014-10-19T09:15:29Z</time>
      </trkpt>
      <trkpt lat="43.69766" lon="1.47561">
        <ele>212.2</ele>
        <time>2014-10-19T09:15:32Z</time>
      </trkpt>
      <trkpt lat="43.69764" lon="1.47565">
        <ele>212.2</ele>
        <time>2014-10-19T09:15:33Z</time>
      </trkpt>
      <trkpt lat="43.69757" lon="1.47578">
        <ele>212.2</ele>
        <time>2014-10-19T09:15:37Z</time>
      </trkpt>
      <trkpt lat="43.69755" lon="1.47581">
        <ele>212.2</ele>
        <time>2014-10-19T09:15:38Z</time>
      </trkpt>
      <trkpt lat="43.69751" lon="1.47587">
        <ele>212.2</ele>
        <time>2014-10-19T09:15:40Z</time>
      </trkpt>
      <trkpt lat="43.69749" lon="1.4759">
        <ele>212.2</ele>
        <time>2014-10-19T09:15:41Z</time>
      </trkpt>
      <trkpt lat="43.69747" lon="1.47594">
        <ele>212.2</ele>
        <time>2014-10-19T09:15:42Z</time>
      </trkpt>
      <trkpt lat="43.69744" lon="1.47597">
        <ele>212.2</ele>
        <time>2014-10-19T09:15:43Z</time>
      </trkpt>
      <trkpt lat="43.69742" lon="1.476">
        <ele>212.2</ele>
        <time>2014-10-19T09:15:44Z</time>
      </trkpt>
      <trkpt lat="43.69727" lon="1.47627">
        <ele>212</ele>
        <time>2014-10-19T09:15:52Z</time>
      </trkpt>
      <trkpt lat="43.69718" lon="1.47642">
        <ele>211.8</ele>
        <time>2014-10-19T09:15:57Z</time>
      </trkpt>
      <trkpt lat="43.69711" lon="1.47652">
        <ele>211.7</ele>
        <time>2014-10-19T09:16:00Z</time>
      </trkpt>
      <trkpt lat="43.69709" lon="1.47655">
        <ele>211.6</ele>
        <time>2014-10-19T09:16:01Z</time>
      </trkpt>
      <trkpt lat="43.69707" lon="1.47658">
        <ele>211.6</ele>
        <time>2014-10-19T09:16:02Z</time>
      </trkpt>
      <trkpt lat="43.69687" lon="1.47704">
        <ele>210.8</ele>
        <time>2014-10-19T09:18:09Z</time>
      </trkpt>
      <trkpt lat="43.69684" lon="1.47707">
        <ele>210.7</ele>
        <time>2014-10-19T09:18:11Z</time>
      </trkpt>
      <trkpt lat="43.69673" lon="1.47719">
        <ele>210.7</ele>
        <time>2014-10-19T09:18:18Z</time>
      </trkpt>
      <trkpt lat="43.69664" lon="1.47735">
        <ele>210.8</ele>
        <time>2014-10-19T09:18:25Z</time>
      </trkpt>
      <trkpt lat="43.69663" lon="1.47741">
        <ele>210.8</ele>
        <time>2014-10-19T09:18:27Z</time>
      </trkpt>
      <trkpt lat="43.69661" lon="1.47757">
        <ele>211</ele>
        <time>2014-10-19T09:18:31Z</time>
      </trkpt>
      <trkpt lat="43.69663" lon="1.47766">
        <ele>211.1</ele>
        <time>2014-10-19T09:18:33Z</time>
      </trkpt>
      <trkpt lat="43.69663" lon="1.47772">
        <ele>211.2</ele>
        <time>2014-10-19T09:18:35Z</time>
      </trkpt>
      <trkpt lat="43.69673" lon="1.47786">
        <ele>211.5</ele>
        <time>2014-10-19T09:18:41Z</time>
      </trkpt>
      <trkpt lat="43.69677" lon="1.47791">
        <ele>211.6</ele>
        <time>2014-10-19T09:18:43Z</time>
      </trkpt>
      <trkpt lat="43.69679" lon="1.47794">
        <ele>211.6</ele>
        <time>2014-10-19T09:18:44Z</time>
      </trkpt>
      <trkpt lat="43.69681" lon="1.47797">
        <ele>211.7</ele>
        <time>2014-10-19T09:18:45Z</time>
      </trkpt>
      <trkpt lat="43.69684" lon="1.478">
        <ele>211.7</ele>
        <time>2014-10-19T09:18:47Z</time>
      </trkpt>
      <trkpt lat="43.69704" lon="1.47824">
        <ele>211.6</ele>
        <time>2014-10-19T09:18:56Z</time>
      </trkpt>
      <trkpt lat="43.69711" lon="1.4783">
        <ele>211.5</ele>
        <time>2014-10-19T09:18:59Z</time>
      </trkpt>
      <trkpt lat="43.6972" lon="1.47835">
        <ele>211.5</ele>
        <time>2014-10-19T09:19:03Z</time>
      </trkpt>
      <trkpt lat="43.69726" lon="1.47836">
        <ele>211.5</ele>
        <time>2014-10-19T09:19:05Z</time>
      </trkpt>
      <trkpt lat="43.69729" lon="1.47836">
        <ele>211.5</ele>
        <time>2014-10-19T09:19:06Z</time>
      </trkpt>
      <trkpt lat="43.6974" lon="1.47835">
        <ele>211.5</ele>
        <time>2014-10-19T09:19:10Z</time>
      </trkpt>
      <trkpt lat="43.69755" lon="1.47833">
        <ele>211.5</ele>
        <time>2014-10-19T09:19:15Z</time>
      </trkpt>
      <trkpt lat="43.69758" lon="1.47832">
        <ele>211.5</ele>
        <time>2014-10-19T09:19:16Z</time>
      </trkpt>
      <trkpt lat="43.69761" lon="1.47832">
        <ele>211.5</ele>
        <time>2014-10-19T09:19:17Z</time>
      </trkpt>
      <trkpt lat="43.69764" lon="1.4783">
        <ele>211.5</ele>
        <time>2014-10-19T09:19:18Z</time>
      </trkpt>
      <trkpt lat="43.69766" lon="1.4783">
        <ele>211.5</ele>
        <time>2014-10-19T09:19:19Z</time>
      </trkpt>
      <trkpt lat="43.69771" lon="1.47828">
        <ele>211.6</ele>
        <time>2014-10-19T09:19:21Z</time>
      </trkpt>
      <trkpt lat="43.69801" lon="1.47823">
        <ele>211.4</ele>
        <time>2014-10-19T09:19:33Z</time>
      </trkpt>
      <trkpt lat="43.69806" lon="1.47822">
        <ele>211.2</ele>
        <time>2014-10-19T09:19:35Z</time>
      </trkpt>
      <trkpt lat="43.69811" lon="1.47822">
        <ele>211.1</ele>
        <time>2014-10-19T09:19:37Z</time>
      </trkpt>
      <trkpt lat="43.69814" lon="1.47821">
        <ele>211</ele>
        <time>2014-10-19T09:19:38Z</time>
      </trkpt>
      <trkpt lat="43.69817" lon="1.47821">
        <ele>210.9</ele>
        <time>2014-10-19T09:19:39Z</time>
      </trkpt>
      <trkpt lat="43.6982" lon="1.4782">
        <ele>210.9</ele>
        <time>2014-10-19T09:19:40Z</time>
      </trkpt>
      <trkpt lat="43.69828" lon="1.47817">
        <ele>210.7</ele>
        <time>2014-10-19T09:19:44Z</time>
      </trkpt>
      <trkpt lat="43.69833" lon="1.47818">
        <ele>210.6</ele>
        <time>2014-10-19T09:19:46Z</time>
      </trkpt>
      <trkpt lat="43.69847" lon="1.4782">
        <ele>210.1</ele>
        <time>2014-10-19T09:19:50Z</time>
      </trkpt>
      <trkpt lat="43.69852" lon="1.47819">
        <ele>210</ele>
        <time>2014-10-19T09:19:52Z</time>
      </trkpt>
      <trkpt lat="43.69856" lon="1.47818">
        <ele>209.9</ele>
        <time>2014-10-19T09:19:53Z</time>
      </trkpt>
      <trkpt lat="43.69859" lon="1.47816">
        <ele>209.9</ele>
        <time>2014-10-19T09:19:54Z</time>
      </trkpt>
      <trkpt lat="43.69862" lon="1.47815">
        <ele>209.8</ele>
        <time>2014-10-19T09:19:55Z</time>
      </trkpt>
      <trkpt lat="43.69889" lon="1.47795">
        <ele>209.4</ele>
        <time>2014-10-19T09:20:05Z</time>
      </trkpt>
      <trkpt lat="43.69892" lon="1.47792">
        <ele>209.4</ele>
        <time>2014-10-19T09:20:06Z</time>
      </trkpt>
      <trkpt lat="43.69894" lon="1.47789">
        <ele>209.3</ele>
        <time>2014-10-19T09:20:07Z</time>
      </trkpt>
      <trkpt lat="43.69899" lon="1.47786">
        <ele>209.2</ele>
        <time>2014-10-19T09:20:08Z</time>
      </trkpt>
      <trkpt lat="43.69903" lon="1.47783">
        <ele>209</ele>
        <time>2014-10-19T09:20:09Z</time>
      </trkpt>
      <trkpt lat="43.69917" lon="1.47763">
        <ele>208.5</ele>
        <time>2014-10-19T09:20:14Z</time>
      </trkpt>
      <trkpt lat="43.69918" lon="1.4776">
        <ele>208.4</ele>
        <time>2014-10-19T09:20:15Z</time>
      </trkpt>
      <trkpt lat="43.6992" lon="1.47756">
        <ele>208.3</ele>
        <time>2014-10-19T09:20:16Z</time>
      </trkpt>
      <trkpt lat="43.69922" lon="1.47752">
        <ele>208.2</ele>
        <time>2014-10-19T09:20:17Z</time>
      </trkpt>
      <trkpt lat="43.69926" lon="1.47748">
        <ele>208.1</ele>
        <time>2014-10-19T09:20:18Z</time>
      </trkpt>
      <trkpt lat="43.69928" lon="1.47744">
        <ele>207.9</ele>
        <time>2014-10-19T09:20:19Z</time>
      </trkpt>
      <trkpt lat="43.69935" lon="1.47733">
        <ele>207.5</ele>
        <time>2014-10-19T09:20:22Z</time>
      </trkpt>
      <trkpt lat="43.69938" lon="1.47731">
        <ele>207.4</ele>
        <time>2014-10-19T09:20:23Z</time>
      </trkpt>
      <trkpt lat="43.6994" lon="1.47728">
        <ele>207.2</ele>
        <time>2014-10-19T09:20:24Z</time>
      </trkpt>
      <trkpt lat="43.69942" lon="1.47725">
        <ele>207.1</ele>
        <time>2014-10-19T09:20:25Z</time>
      </trkpt>
      <trkpt lat="43.69944" lon="1.47722">
        <ele>207</ele>
        <time>2014-10-19T09:20:26Z</time>
      </trkpt>
      <trkpt lat="43.69946" lon="1.47719">
        <ele>206.8</ele>
        <time>2014-10-19T09:20:27Z</time>
      </trkpt>
      <trkpt lat="43.69954" lon="1.47709">
        <ele>206.3</ele>
        <time>2014-10-19T09:20:30Z</time>
      </trkpt>
      <trkpt lat="43.69957" lon="1.47706">
        <ele>206.2</ele>
        <time>2014-10-19T09:20:31Z</time>
      </trkpt>
      <trkpt lat="43.6996" lon="1.47703">
        <ele>206</ele>
        <time>2014-10-19T09:20:32Z</time>
      </trkpt>
      <trkpt lat="43.69962" lon="1.477">
        <ele>205.9</ele>
        <time>2014-10-19T09:20:33Z</time>
      </trkpt>
      <trkpt lat="43.69971" lon="1.47691">
        <ele>205.5</ele>
        <time>2014-10-19T09:20:36Z</time>
      </trkpt>
      <trkpt lat="43.69978" lon="1.47682">
        <ele>205.3</ele>
        <time>2014-10-19T09:20:39Z</time>
      </trkpt>
      <trkpt lat="43.6998" lon="1.47679">
        <ele>205.2</ele>
        <time>2014-10-19T09:20:40Z</time>
      </trkpt>
      <trkpt lat="43.69982" lon="1.47676">
        <ele>205.1</ele>
        <time>2014-10-19T09:20:41Z</time>
      </trkpt>
      <trkpt lat="43.69984" lon="1.47672">
        <ele>205</ele>
        <time>2014-10-19T09:20:42Z</time>
      </trkpt>
      <trkpt lat="43.69987" lon="1.4767">
        <ele>204.9</ele>
        <time>2014-10-19T09:20:43Z</time>
      </trkpt>
      <trkpt lat="43.69989" lon="1.47666">
        <ele>204.8</ele>
        <time>2014-10-19T09:20:44Z</time>
      </trkpt>
      <trkpt lat="43.69992" lon="1.47663">
        <ele>204.7</ele>
        <time>2014-10-19T09:20:45Z</time>
      </trkpt>
      <trkpt lat="43.69995" lon="1.4766">
        <ele>204.6</ele>
        <time>2014-10-19T09:20:46Z</time>
      </trkpt>
      <trkpt lat="43.70003" lon="1.47651">
        <ele>204.2</ele>
        <time>2014-10-19T09:20:49Z</time>
      </trkpt>
      <trkpt lat="43.70006" lon="1.47649">
        <ele>204</ele>
        <time>2014-10-19T09:20:50Z</time>
      </trkpt>
      <trkpt lat="43.70009" lon="1.47647">
        <ele>203.8</ele>
        <time>2014-10-19T09:20:51Z</time>
      </trkpt>
      <trkpt lat="43.70012" lon="1.47645">
        <ele>203.6</ele>
        <time>2014-10-19T09:20:52Z</time>
      </trkpt>
      <trkpt lat="43.70015" lon="1.47644">
        <ele>203.5</ele>
        <time>2014-10-19T09:20:53Z</time>
      </trkpt>
      <trkpt lat="43.70027" lon="1.47641">
        <ele>202.7</ele>
        <time>2014-10-19T09:20:57Z</time>
      </trkpt>
      <trkpt lat="43.70037" lon="1.47638">
        <ele>202.1</ele>
        <time>2014-10-19T09:21:00Z</time>
      </trkpt>
      <trkpt lat="43.7005" lon="1.47636">
        <ele>201.9</ele>
        <time>2014-10-19T09:21:04Z</time>
      </trkpt>
      <trkpt lat="43.70053" lon="1.47635">
        <ele>201.9</ele>
        <time>2014-10-19T09:21:05Z</time>
      </trkpt>
      <trkpt lat="43.70057" lon="1.47636">
        <ele>201.9</ele>
        <time>2014-10-19T09:21:06Z</time>
      </trkpt>
      <trkpt lat="43.7006" lon="1.47636">
        <ele>202</ele>
        <time>2014-10-19T09:21:07Z</time>
      </trkpt>
      <trkpt lat="43.70063" lon="1.47637">
        <ele>202</ele>
        <time>2014-10-19T09:21:08Z</time>
      </trkpt>
      <trkpt lat="43.70072" lon="1.47639">
        <ele>202</ele>
        <time>2014-10-19T09:21:11Z</time>
      </trkpt>
      <trkpt lat="43.70082" lon="1.47642">
        <ele>201.9</ele>
        <time>2014-10-19T09:21:14Z</time>
      </trkpt>
      <trkpt lat="43.70103" lon="1.47648">
        <ele>201.5</ele>
        <time>2014-10-19T09:21:21Z</time>
      </trkpt>
      <trkpt lat="43.70107" lon="1.47648">
        <ele>201.5</ele>
        <time>2014-10-19T09:21:22Z</time>
      </trkpt>
      <trkpt lat="43.7011" lon="1.47647">
        <ele>201.6</ele>
        <time>2014-10-19T09:21:23Z</time>
      </trkpt>
      <trkpt lat="43.70113" lon="1.47647">
        <ele>201.7</ele>
        <time>2014-10-19T09:21:24Z</time>
      </trkpt>
      <trkpt lat="43.70117" lon="1.47647">
        <ele>201.6</ele>
        <time>2014-10-19T09:21:25Z</time>
      </trkpt>
      <trkpt lat="43.7012" lon="1.47646">
        <ele>201.7</ele>
        <time>2014-10-19T09:21:26Z</time>
      </trkpt>
      <trkpt lat="43.70133" lon="1.47642">
        <ele>202.1</ele>
        <time>2014-10-19T09:21:30Z</time>
      </trkpt>
      <trkpt lat="43.70146" lon="1.47635">
        <ele>202.5</ele>
        <time>2014-10-19T09:21:34Z</time>
      </trkpt>
      <trkpt lat="43.70149" lon="1.47634">
        <ele>202.5</ele>
        <time>2014-10-19T09:21:35Z</time>
      </trkpt>
      <trkpt lat="43.70159" lon="1.47628">
        <ele>202.9</ele>
        <time>2014-10-19T09:21:39Z</time>
      </trkpt>
      <trkpt lat="43.70162" lon="1.47627">
        <ele>203</ele>
        <time>2014-10-19T09:21:40Z</time>
      </trkpt>
      <trkpt lat="43.70168" lon="1.47625">
        <ele>203</ele>
        <time>2014-10-19T09:21:42Z</time>
      </trkpt>
      <trkpt lat="43.70171" lon="1.47624">
        <ele>202.9</ele>
        <time>2014-10-19T09:21:43Z</time>
      </trkpt>
      <trkpt lat="43.70174" lon="1.47623">
        <ele>202.8</ele>
        <time>2014-10-19T09:21:44Z</time>
      </trkpt>
      <trkpt lat="43.70183" lon="1.47622">
        <ele>202.6</ele>
        <time>2014-10-19T09:21:47Z</time>
      </trkpt>
      <trkpt lat="43.70186" lon="1.47622">
        <ele>202.5</ele>
        <time>2014-10-19T09:21:48Z</time>
      </trkpt>
      <trkpt lat="43.70196" lon="1.47626">
        <ele>202.2</ele>
        <time>2014-10-19T09:21:51Z</time>
      </trkpt>
      <trkpt lat="43.70199" lon="1.47628">
        <ele>202</ele>
        <time>2014-10-19T09:21:52Z</time>
      </trkpt>
      <trkpt lat="43.70212" lon="1.47632">
        <ele>201.3</ele>
        <time>2014-10-19T09:21:56Z</time>
      </trkpt>
      <trkpt lat="43.70215" lon="1.47633">
        <ele>201</ele>
        <time>2014-10-19T09:21:57Z</time>
      </trkpt>
      <trkpt lat="43.70225" lon="1.47639">
        <ele>200.1</ele>
        <time>2014-10-19T09:22:00Z</time>
      </trkpt>
      <trkpt lat="43.70233" lon="1.47642">
        <ele>199.5</ele>
        <time>2014-10-19T09:22:03Z</time>
      </trkpt>
      <trkpt lat="43.70254" lon="1.47651">
        <ele>197.9</ele>
        <time>2014-10-19T09:22:11Z</time>
      </trkpt>
      <trkpt lat="43.70257" lon="1.47653">
        <ele>197.7</ele>
        <time>2014-10-19T09:22:13Z</time>
      </trkpt>
      <trkpt lat="43.7027" lon="1.4766">
        <ele>196.7</ele>
        <time>2014-10-19T09:22:42Z</time>
      </trkpt>
      <trkpt lat="43.70273" lon="1.47662">
        <ele>196.5</ele>
        <time>2014-10-19T09:22:43Z</time>
      </trkpt>
      <trkpt lat="43.70275" lon="1.47664">
        <ele>196.3</ele>
        <time>2014-10-19T09:22:44Z</time>
      </trkpt>
      <trkpt lat="43.70278" lon="1.47666">
        <ele>196.1</ele>
        <time>2014-10-19T09:22:45Z</time>
      </trkpt>
      <trkpt lat="43.7028" lon="1.47669">
        <ele>195.9</ele>
        <time>2014-10-19T09:22:46Z</time>
      </trkpt>
      <trkpt lat="43.70283" lon="1.47671">
        <ele>195.7</ele>
        <time>2014-10-19T09:22:47Z</time>
      </trkpt>
      <trkpt lat="43.70286" lon="1.47673">
        <ele>195.5</ele>
        <time>2014-10-19T09:22:48Z</time>
      </trkpt>
      <trkpt lat="43.70301" lon="1.47683">
        <ele>195</ele>
        <time>2014-10-19T09:22:54Z</time>
      </trkpt>
      <trkpt lat="43.70304" lon="1.47684">
        <ele>194.9</ele>
        <time>2014-10-19T09:22:55Z</time>
      </trkpt>
      <trkpt lat="43.70309" lon="1.47687">
        <ele>194.9</ele>
        <time>2014-10-19T09:22:57Z</time>
      </trkpt>
      <trkpt lat="43.70338" lon="1.47704">
        <ele>194.7</ele>
        <time>2014-10-19T09:23:08Z</time>
      </trkpt>
      <trkpt lat="43.70341" lon="1.47705">
        <ele>194.7</ele>
        <time>2014-10-19T09:23:09Z</time>
      </trkpt>
      <trkpt lat="43.70347" lon="1.47708">
        <ele>194.7</ele>
        <time>2014-10-19T09:23:11Z</time>
      </trkpt>
      <trkpt lat="43.70361" lon="1.4771">
        <ele>194.8</ele>
        <time>2014-10-19T09:23:15Z</time>
      </trkpt>
      <trkpt lat="43.70364" lon="1.47712">
        <ele>194.8</ele>
        <time>2014-10-19T09:23:16Z</time>
      </trkpt>
      <trkpt lat="43.70367" lon="1.47714">
        <ele>194.8</ele>
        <time>2014-10-19T09:23:17Z</time>
      </trkpt>
      <trkpt lat="43.7037" lon="1.47715">
        <ele>194.9</ele>
        <time>2014-10-19T09:23:18Z</time>
      </trkpt>
      <trkpt lat="43.70374" lon="1.47716">
        <ele>194.9</ele>
        <time>2014-10-19T09:23:19Z</time>
      </trkpt>
      <trkpt lat="43.70377" lon="1.47718">
        <ele>194.8</ele>
        <time>2014-10-19T09:23:20Z</time>
      </trkpt>
      <trkpt lat="43.70381" lon="1.47719">
        <ele>194.7</ele>
        <time>2014-10-19T09:23:21Z</time>
      </trkpt>
      <trkpt lat="43.70384" lon="1.4772">
        <ele>194.5</ele>
        <time>2014-10-19T09:23:22Z</time>
      </trkpt>
      <trkpt lat="43.70387" lon="1.47721">
        <ele>194.4</ele>
        <time>2014-10-19T09:23:23Z</time>
      </trkpt>
      <trkpt lat="43.70397" lon="1.47726">
        <ele>193.8</ele>
        <time>2014-10-19T09:23:26Z</time>
      </trkpt>
      <trkpt lat="43.704" lon="1.47728">
        <ele>193.7</ele>
        <time>2014-10-19T09:23:27Z</time>
      </trkpt>
      <trkpt lat="43.70403" lon="1.47729">
        <ele>193.5</ele>
        <time>2014-10-19T09:23:28Z</time>
      </trkpt>
      <trkpt lat="43.70407" lon="1.47731">
        <ele>193.3</ele>
        <time>2014-10-19T09:23:29Z</time>
      </trkpt>
      <trkpt lat="43.70413" lon="1.47733">
        <ele>192.9</ele>
        <time>2014-10-19T09:23:31Z</time>
      </trkpt>
      <trkpt lat="43.70417" lon="1.47735">
        <ele>192.7</ele>
        <time>2014-10-19T09:23:32Z</time>
      </trkpt>
      <trkpt lat="43.7042" lon="1.47736">
        <ele>192.5</ele>
        <time>2014-10-19T09:23:33Z</time>
      </trkpt>
      <trkpt lat="43.70438" lon="1.47745">
        <ele>191.3</ele>
        <time>2014-10-19T09:23:38Z</time>
      </trkpt>
      <trkpt lat="43.70441" lon="1.47746">
        <ele>191.1</ele>
        <time>2014-10-19T09:23:39Z</time>
      </trkpt>
      <trkpt lat="43.70444" lon="1.47748">
        <ele>190.8</ele>
        <time>2014-10-19T09:23:40Z</time>
      </trkpt>
      <trkpt lat="43.70459" lon="1.47754">
        <ele>189.8</ele>
        <time>2014-10-19T09:23:44Z</time>
      </trkpt>
      <trkpt lat="43.70462" lon="1.47756">
        <ele>189.6</ele>
        <time>2014-10-19T09:23:45Z</time>
      </trkpt>
      <trkpt lat="43.70466" lon="1.47758">
        <ele>189.4</ele>
        <time>2014-10-19T09:23:46Z</time>
      </trkpt>
      <trkpt lat="43.7047" lon="1.4776">
        <ele>189.2</ele>
        <time>2014-10-19T09:23:47Z</time>
      </trkpt>
      <trkpt lat="43.70473" lon="1.47761">
        <ele>189.1</ele>
        <time>2014-10-19T09:23:48Z</time>
      </trkpt>
      <trkpt lat="43.70477" lon="1.47763">
        <ele>188.9</ele>
        <time>2014-10-19T09:23:49Z</time>
      </trkpt>
      <trkpt lat="43.7048" lon="1.47765">
        <ele>188.8</ele>
        <time>2014-10-19T09:23:50Z</time>
      </trkpt>
      <trkpt lat="43.70484" lon="1.47766">
        <ele>188.7</ele>
        <time>2014-10-19T09:23:51Z</time>
      </trkpt>
      <trkpt lat="43.70487" lon="1.47767">
        <ele>188.6</ele>
        <time>2014-10-19T09:23:52Z</time>
      </trkpt>
      <trkpt lat="43.7049" lon="1.47768">
        <ele>188.4</ele>
        <time>2014-10-19T09:23:53Z</time>
      </trkpt>
      <trkpt lat="43.70494" lon="1.47768">
        <ele>188.3</ele>
        <time>2014-10-19T09:23:54Z</time>
      </trkpt>
      <trkpt lat="43.70517" lon="1.47772">
        <ele>187.7</ele>
        <time>2014-10-19T09:24:00Z</time>
      </trkpt>
      <trkpt lat="43.70521" lon="1.47773">
        <ele>187.6</ele>
        <time>2014-10-19T09:24:01Z</time>
      </trkpt>
      <trkpt lat="43.70525" lon="1.47774">
        <ele>187.6</ele>
        <time>2014-10-19T09:24:02Z</time>
      </trkpt>
      <trkpt lat="43.70529" lon="1.47774">
        <ele>187.5</ele>
        <time>2014-10-19T09:24:03Z</time>
      </trkpt>
      <trkpt lat="43.70532" lon="1.47775">
        <ele>187.4</ele>
        <time>2014-10-19T09:24:04Z</time>
      </trkpt>
      <trkpt lat="43.70536" lon="1.47776">
        <ele>187.3</ele>
        <time>2014-10-19T09:24:05Z</time>
      </trkpt>
      <trkpt lat="43.70539" lon="1.47778">
        <ele>187.2</ele>
        <time>2014-10-19T09:24:06Z</time>
      </trkpt>
      <trkpt lat="43.70542" lon="1.47779">
        <ele>187.1</ele>
        <time>2014-10-19T09:24:07Z</time>
      </trkpt>
      <trkpt lat="43.70558" lon="1.47785">
        <ele>186.9</ele>
        <time>2014-10-19T09:24:12Z</time>
      </trkpt>
      <trkpt lat="43.70561" lon="1.47786">
        <ele>186.8</ele>
        <time>2014-10-19T09:24:13Z</time>
      </trkpt>
      <trkpt lat="43.70565" lon="1.47787">
        <ele>186.8</ele>
        <time>2014-10-19T09:24:14Z</time>
      </trkpt>
      <trkpt lat="43.70568" lon="1.47788">
        <ele>186.7</ele>
        <time>2014-10-19T09:24:15Z</time>
      </trkpt>
      <trkpt lat="43.70572" lon="1.4779">
        <ele>186.7</ele>
        <time>2014-10-19T09:24:16Z</time>
      </trkpt>
      <trkpt lat="43.70593" lon="1.47795">
        <ele>186.4</ele>
        <time>2014-10-19T09:24:22Z</time>
      </trkpt>
      <trkpt lat="43.70597" lon="1.47796">
        <ele>186.4</ele>
        <time>2014-10-19T09:24:23Z</time>
      </trkpt>
      <trkpt lat="43.706" lon="1.47796">
        <ele>186.3</ele>
        <time>2014-10-19T09:24:24Z</time>
      </trkpt>
      <trkpt lat="43.70604" lon="1.47797">
        <ele>186.3</ele>
        <time>2014-10-19T09:24:25Z</time>
      </trkpt>
      <trkpt lat="43.70623" lon="1.47798">
        <ele>186.1</ele>
        <time>2014-10-19T09:24:30Z</time>
      </trkpt>
      <trkpt lat="43.70627" lon="1.47798">
        <ele>186.1</ele>
        <time>2014-10-19T09:24:31Z</time>
      </trkpt>
      <trkpt lat="43.70631" lon="1.47799">
        <ele>186</ele>
        <time>2014-10-19T09:24:32Z</time>
      </trkpt>
      <trkpt lat="43.70635" lon="1.47799">
        <ele>186</ele>
        <time>2014-10-19T09:24:33Z</time>
      </trkpt>
      <trkpt lat="43.70658" lon="1.47803">
        <ele>185.7</ele>
        <time>2014-10-19T09:24:39Z</time>
      </trkpt>
      <trkpt lat="43.70662" lon="1.47803">
        <ele>185.7</ele>
        <time>2014-10-19T09:24:40Z</time>
      </trkpt>
      <trkpt lat="43.70666" lon="1.47804">
        <ele>185.7</ele>
        <time>2014-10-19T09:24:41Z</time>
      </trkpt>
      <trkpt lat="43.7067" lon="1.47805">
        <ele>185.6</ele>
        <time>2014-10-19T09:24:42Z</time>
      </trkpt>
      <trkpt lat="43.70673" lon="1.47806">
        <ele>185.6</ele>
        <time>2014-10-19T09:24:43Z</time>
      </trkpt>
      <trkpt lat="43.70677" lon="1.47807">
        <ele>185.6</ele>
        <time>2014-10-19T09:24:44Z</time>
      </trkpt>
      <trkpt lat="43.70696" lon="1.47808">
        <ele>185.3</ele>
        <time>2014-10-19T09:24:49Z</time>
      </trkpt>
      <trkpt lat="43.70699" lon="1.47809">
        <ele>185.3</ele>
        <time>2014-10-19T09:24:50Z</time>
      </trkpt>
      <trkpt lat="43.70703" lon="1.47809">
        <ele>185.3</ele>
        <time>2014-10-19T09:24:51Z</time>
      </trkpt>
      <trkpt lat="43.70707" lon="1.4781">
        <ele>185.2</ele>
        <time>2014-10-19T09:24:52Z</time>
      </trkpt>
      <trkpt lat="43.70711" lon="1.4781">
        <ele>185.2</ele>
        <time>2014-10-19T09:24:53Z</time>
      </trkpt>
      <trkpt lat="43.70714" lon="1.47811">
        <ele>185.2</ele>
        <time>2014-10-19T09:24:54Z</time>
      </trkpt>
      <trkpt lat="43.70718" lon="1.47812">
        <ele>185.2</ele>
        <time>2014-10-19T09:24:55Z</time>
      </trkpt>
      <trkpt lat="43.70721" lon="1.47813">
        <ele>185.1</ele>
        <time>2014-10-19T09:24:56Z</time>
      </trkpt>
      <trkpt lat="43.70745" lon="1.47825">
        <ele>185.1</ele>
        <time>2014-10-19T09:25:03Z</time>
      </trkpt>
      <trkpt lat="43.70752" lon="1.47829">
        <ele>185.2</ele>
        <time>2014-10-19T09:25:05Z</time>
      </trkpt>
      <trkpt lat="43.70755" lon="1.47831">
        <ele>185.2</ele>
        <time>2014-10-19T09:25:06Z</time>
      </trkpt>
      <trkpt lat="43.70758" lon="1.47833">
        <ele>185.2</ele>
        <time>2014-10-19T09:25:07Z</time>
      </trkpt>
      <trkpt lat="43.70761" lon="1.47834">
        <ele>185.2</ele>
        <time>2014-10-19T09:25:08Z</time>
      </trkpt>
      <trkpt lat="43.70764" lon="1.47836">
        <ele>185.2</ele>
        <time>2014-10-19T09:25:09Z</time>
      </trkpt>
      <trkpt lat="43.70766" lon="1.47838">
        <ele>185.2</ele>
        <time>2014-10-19T09:25:10Z</time>
      </trkpt>
      <trkpt lat="43.70769" lon="1.4784">
        <ele>185.3</ele>
        <time>2014-10-19T09:25:11Z</time>
      </trkpt>
      <trkpt lat="43.708" lon="1.47857">
        <ele>185.4</ele>
        <time>2014-10-19T09:25:20Z</time>
      </trkpt>
      <trkpt lat="43.70804" lon="1.47859">
        <ele>185.3</ele>
        <time>2014-10-19T09:25:21Z</time>
      </trkpt>
      <trkpt lat="43.70807" lon="1.4786">
        <ele>185.3</ele>
        <time>2014-10-19T09:25:22Z</time>
      </trkpt>
      <trkpt lat="43.7081" lon="1.47862">
        <ele>185.2</ele>
        <time>2014-10-19T09:25:23Z</time>
      </trkpt>
      <trkpt lat="43.70813" lon="1.47863">
        <ele>185.2</ele>
        <time>2014-10-19T09:25:24Z</time>
      </trkpt>
      <trkpt lat="43.70827" lon="1.47866">
        <ele>184.9</ele>
        <time>2014-10-19T09:25:28Z</time>
      </trkpt>
      <trkpt lat="43.7083" lon="1.47866">
        <ele>184.9</ele>
        <time>2014-10-19T09:25:29Z</time>
      </trkpt>
      <trkpt lat="43.70833" lon="1.47866">
        <ele>184.8</ele>
        <time>2014-10-19T09:25:30Z</time>
      </trkpt>
      <trkpt lat="43.70836" lon="1.47865">
        <ele>184.7</ele>
        <time>2014-10-19T09:25:31Z</time>
      </trkpt>
      <trkpt lat="43.70839" lon="1.47864">
        <ele>184.6</ele>
        <time>2014-10-19T09:25:32Z</time>
      </trkpt>
      <trkpt lat="43.70865" lon="1.47841">
        <ele>183.4</ele>
        <time>2014-10-19T09:25:40Z</time>
      </trkpt>
      <trkpt lat="43.70868" lon="1.47838">
        <ele>183.3</ele>
        <time>2014-10-19T09:25:41Z</time>
      </trkpt>
      <trkpt lat="43.70872" lon="1.47834">
        <ele>183.1</ele>
        <time>2014-10-19T09:25:42Z</time>
      </trkpt>
      <trkpt lat="43.70875" lon="1.47832">
        <ele>183</ele>
        <time>2014-10-19T09:25:43Z</time>
      </trkpt>
      <trkpt lat="43.70878" lon="1.47829">
        <ele>182.8</ele>
        <time>2014-10-19T09:25:44Z</time>
      </trkpt>
      <trkpt lat="43.70881" lon="1.47826">
        <ele>182.7</ele>
        <time>2014-10-19T09:25:45Z</time>
      </trkpt>
      <trkpt lat="43.70884" lon="1.47825">
        <ele>182.6</ele>
        <time>2014-10-19T09:25:46Z</time>
      </trkpt>
      <trkpt lat="43.70888" lon="1.47823">
        <ele>182.4</ele>
        <time>2014-10-19T09:25:47Z</time>
      </trkpt>
      <trkpt lat="43.70903" lon="1.47815">
        <ele>181.9</ele>
        <time>2014-10-19T09:25:51Z</time>
      </trkpt>
      <trkpt lat="43.70907" lon="1.47814">
        <ele>181.8</ele>
        <time>2014-10-19T09:25:52Z</time>
      </trkpt>
      <trkpt lat="43.70911" lon="1.47812">
        <ele>181.6</ele>
        <time>2014-10-19T09:25:53Z</time>
      </trkpt>
      <trkpt lat="43.70914" lon="1.4781">
        <ele>181.5</ele>
        <time>2014-10-19T09:25:54Z</time>
      </trkpt>
      <trkpt lat="43.70918" lon="1.47809">
        <ele>181.4</ele>
        <time>2014-10-19T09:25:55Z</time>
      </trkpt>
      <trkpt lat="43.70922" lon="1.47808">
        <ele>181.3</ele>
        <time>2014-10-19T09:25:56Z</time>
      </trkpt>
      <trkpt lat="43.70926" lon="1.47808">
        <ele>181.2</ele>
        <time>2014-10-19T09:25:57Z</time>
      </trkpt>
      <trkpt lat="43.7093" lon="1.47808">
        <ele>181.1</ele>
        <time>2014-10-19T09:25:58Z</time>
      </trkpt>
      <trkpt lat="43.70933" lon="1.47807">
        <ele>181</ele>
        <time>2014-10-19T09:25:59Z</time>
      </trkpt>
      <trkpt lat="43.70937" lon="1.47807">
        <ele>180.9</ele>
        <time>2014-10-19T09:26:00Z</time>
      </trkpt>
      <trkpt lat="43.70959" lon="1.47809">
        <ele>180.4</ele>
        <time>2014-10-19T09:26:06Z</time>
      </trkpt>
      <trkpt lat="43.70963" lon="1.47809">
        <ele>180.3</ele>
        <time>2014-10-19T09:26:07Z</time>
      </trkpt>
      <trkpt lat="43.70966" lon="1.4781">
        <ele>180.3</ele>
        <time>2014-10-19T09:26:08Z</time>
      </trkpt>
      <trkpt lat="43.7097" lon="1.47811">
        <ele>180.2</ele>
        <time>2014-10-19T09:26:09Z</time>
      </trkpt>
      <trkpt lat="43.70973" lon="1.47812">
        <ele>180.1</ele>
        <time>2014-10-19T09:26:10Z</time>
      </trkpt>
      <trkpt lat="43.70977" lon="1.47813">
        <ele>180.1</ele>
        <time>2014-10-19T09:26:11Z</time>
      </trkpt>
      <trkpt lat="43.70995" lon="1.47821">
        <ele>179.8</ele>
        <time>2014-10-19T09:26:16Z</time>
      </trkpt>
      <trkpt lat="43.70998" lon="1.47823">
        <ele>179.8</ele>
        <time>2014-10-19T09:26:17Z</time>
      </trkpt>
      <trkpt lat="43.71002" lon="1.47825">
        <ele>179.8</ele>
        <time>2014-10-19T09:26:18Z</time>
      </trkpt>
      <trkpt lat="43.71005" lon="1.47828">
        <ele>179.7</ele>
        <time>2014-10-19T09:26:19Z</time>
      </trkpt>
      <trkpt lat="43.71024" lon="1.47841">
        <ele>179.6</ele>
        <time>2014-10-19T09:26:25Z</time>
      </trkpt>
      <trkpt lat="43.71027" lon="1.47843">
        <ele>179.6</ele>
        <time>2014-10-19T09:26:26Z</time>
      </trkpt>
      <trkpt lat="43.7105" lon="1.47859">
        <ele>179.6</ele>
        <time>2014-10-19T09:26:34Z</time>
      </trkpt>
      <trkpt lat="43.71053" lon="1.47862">
        <ele>179.7</ele>
        <time>2014-10-19T09:26:35Z</time>
      </trkpt>
      <trkpt lat="43.71056" lon="1.47864">
        <ele>179.8</ele>
        <time>2014-10-19T09:26:36Z</time>
      </trkpt>
      <trkpt lat="43.71059" lon="1.47867">
        <ele>179.9</ele>
        <time>2014-10-19T09:26:37Z</time>
      </trkpt>
      <trkpt lat="43.71061" lon="1.4787">
        <ele>180.1</ele>
        <time>2014-10-19T09:26:38Z</time>
      </trkpt>
      <trkpt lat="43.71064" lon="1.47873">
        <ele>180.2</ele>
        <time>2014-10-19T09:26:39Z</time>
      </trkpt>
      <trkpt lat="43.71067" lon="1.47876">
        <ele>180.3</ele>
        <time>2014-10-19T09:26:40Z</time>
      </trkpt>
      <trkpt lat="43.71076" lon="1.47882">
        <ele>180.5</ele>
        <time>2014-10-19T09:26:43Z</time>
      </trkpt>
      <trkpt lat="43.71078" lon="1.47884">
        <ele>180.5</ele>
        <time>2014-10-19T09:26:44Z</time>
      </trkpt>
      <trkpt lat="43.71106" lon="1.47903">
        <ele>181.1</ele>
        <time>2014-10-19T09:27:22Z</time>
      </trkpt>
      <trkpt lat="43.71109" lon="1.47905">
        <ele>181.2</ele>
        <time>2014-10-19T09:27:23Z</time>
      </trkpt>
      <trkpt lat="43.71111" lon="1.47907">
        <ele>181.2</ele>
        <time>2014-10-19T09:27:24Z</time>
      </trkpt>
      <trkpt lat="43.71114" lon="1.47908">
        <ele>181.3</ele>
        <time>2014-10-19T09:27:25Z</time>
      </trkpt>
      <trkpt lat="43.71116" lon="1.4791">
        <ele>181.3</ele>
        <time>2014-10-19T09:27:26Z</time>
      </trkpt>
      <trkpt lat="43.71127" lon="1.4792">
        <ele>181.5</ele>
        <time>2014-10-19T09:27:31Z</time>
      </trkpt>
      <trkpt lat="43.71129" lon="1.47922">
        <ele>181.5</ele>
        <time>2014-10-19T09:27:32Z</time>
      </trkpt>
      <trkpt lat="43.71132" lon="1.47925">
        <ele>181.4</ele>
        <time>2014-10-19T09:27:33Z</time>
      </trkpt>
      <trkpt lat="43.71141" lon="1.47934">
        <ele>181.3</ele>
        <time>2014-10-19T09:27:37Z</time>
      </trkpt>
      <trkpt lat="43.71144" lon="1.47935">
        <ele>181.3</ele>
        <time>2014-10-19T09:27:38Z</time>
      </trkpt>
      <trkpt lat="43.71147" lon="1.47937">
        <ele>181.2</ele>
        <time>2014-10-19T09:27:39Z</time>
      </trkpt>
      <trkpt lat="43.7115" lon="1.47938">
        <ele>181.2</ele>
        <time>2014-10-19T09:27:40Z</time>
      </trkpt>
      <trkpt lat="43.71153" lon="1.47938">
        <ele>181.1</ele>
        <time>2014-10-19T09:27:41Z</time>
      </trkpt>
      <trkpt lat="43.71162" lon="1.47939">
        <ele>180.9</ele>
        <time>2014-10-19T09:27:44Z</time>
      </trkpt>
      <trkpt lat="43.71165" lon="1.47937">
        <ele>180.8</ele>
        <time>2014-10-19T09:27:45Z</time>
      </trkpt>
      <trkpt lat="43.71168" lon="1.47935">
        <ele>180.7</ele>
        <time>2014-10-19T09:27:46Z</time>
      </trkpt>
      <trkpt lat="43.71171" lon="1.47934">
        <ele>180.6</ele>
        <time>2014-10-19T09:27:47Z</time>
      </trkpt>
      <trkpt lat="43.71174" lon="1.47932">
        <ele>180.5</ele>
        <time>2014-10-19T09:27:48Z</time>
      </trkpt>
      <trkpt lat="43.71179" lon="1.47927">
        <ele>180.3</ele>
        <time>2014-10-19T09:27:50Z</time>
      </trkpt>
      <trkpt lat="43.71189" lon="1.47917">
        <ele>180</ele>
        <time>2014-10-19T09:27:54Z</time>
      </trkpt>
      <trkpt lat="43.71192" lon="1.47914">
        <ele>179.9</ele>
        <time>2014-10-19T09:27:55Z</time>
      </trkpt>
      <trkpt lat="43.71195" lon="1.47911">
        <ele>179.8</ele>
        <time>2014-10-19T09:27:56Z</time>
      </trkpt>
      <trkpt lat="43.71197" lon="1.47909">
        <ele>179.7</ele>
        <time>2014-10-19T09:27:57Z</time>
      </trkpt>
      <trkpt lat="43.71202" lon="1.47902">
        <ele>179.5</ele>
        <time>2014-10-19T09:27:59Z</time>
      </trkpt>
      <trkpt lat="43.71209" lon="1.47889">
        <ele>179.1</ele>
        <time>2014-10-19T09:28:03Z</time>
      </trkpt>
      <trkpt lat="43.71212" lon="1.47886">
        <ele>179.1</ele>
        <time>2014-10-19T09:28:04Z</time>
      </trkpt>
      <trkpt lat="43.71214" lon="1.47883">
        <ele>179</ele>
        <time>2014-10-19T09:28:05Z</time>
      </trkpt>
      <trkpt lat="43.71217" lon="1.47879">
        <ele>178.8</ele>
        <time>2014-10-19T09:28:06Z</time>
      </trkpt>
      <trkpt lat="43.71219" lon="1.47875">
        <ele>178.8</ele>
        <time>2014-10-19T09:28:07Z</time>
      </trkpt>
      <trkpt lat="43.71221" lon="1.47868">
        <ele>178.5</ele>
        <time>2014-10-19T09:28:09Z</time>
      </trkpt>
      <trkpt lat="43.71223" lon="1.47864">
        <ele>178.4</ele>
        <time>2014-10-19T09:28:10Z</time>
      </trkpt>
      <trkpt lat="43.71224" lon="1.47861">
        <ele>178.3</ele>
        <time>2014-10-19T09:28:11Z</time>
      </trkpt>
      <trkpt lat="43.71225" lon="1.47858">
        <ele>178.2</ele>
        <time>2014-10-19T09:28:12Z</time>
      </trkpt>
      <trkpt lat="43.71229" lon="1.47848">
        <ele>177.9</ele>
        <time>2014-10-19T09:28:15Z</time>
      </trkpt>
      <trkpt lat="43.7123" lon="1.47843">
        <ele>177.8</ele>
        <time>2014-10-19T09:28:17Z</time>
      </trkpt>
      <trkpt lat="43.71233" lon="1.47836">
        <ele>177.6</ele>
        <time>2014-10-19T09:28:19Z</time>
      </trkpt>
      <trkpt lat="43.71235" lon="1.4783">
        <ele>177.4</ele>
        <time>2014-10-19T09:28:21Z</time>
      </trkpt>
      <trkpt lat="43.71237" lon="1.47827">
        <ele>177.4</ele>
        <time>2014-10-19T09:28:22Z</time>
      </trkpt>
      <trkpt lat="43.71238" lon="1.47822">
        <ele>177.2</ele>
        <time>2014-10-19T09:28:23Z</time>
      </trkpt>
      <trkpt lat="43.71248" lon="1.47806">
        <ele>176.8</ele>
        <time>2014-10-19T09:28:29Z</time>
      </trkpt>
      <trkpt lat="43.7125" lon="1.47803">
        <ele>176.7</ele>
        <time>2014-10-19T09:28:30Z</time>
      </trkpt>
      <trkpt lat="43.71253" lon="1.47798">
        <ele>176.6</ele>
        <time>2014-10-19T09:28:32Z</time>
      </trkpt>
      <trkpt lat="43.71255" lon="1.47795">
        <ele>176.5</ele>
        <time>2014-10-19T09:28:33Z</time>
      </trkpt>
      <trkpt lat="43.71257" lon="1.47791">
        <ele>176.4</ele>
        <time>2014-10-19T09:28:34Z</time>
      </trkpt>
      <trkpt lat="43.71259" lon="1.47787">
        <ele>176.3</ele>
        <time>2014-10-19T09:28:35Z</time>
      </trkpt>
      <trkpt lat="43.71261" lon="1.47783">
        <ele>176.1</ele>
        <time>2014-10-19T09:28:36Z</time>
      </trkpt>
      <trkpt lat="43.71268" lon="1.47767">
        <ele>175.7</ele>
        <time>2014-10-19T09:28:40Z</time>
      </trkpt>
      <trkpt lat="43.71273" lon="1.4775">
        <ele>175.4</ele>
        <time>2014-10-19T09:28:44Z</time>
      </trkpt>
      <trkpt lat="43.71273" lon="1.47744">
        <ele>175.3</ele>
        <time>2014-10-19T09:28:45Z</time>
      </trkpt>
      <trkpt lat="43.71274" lon="1.47731">
        <ele>175</ele>
        <time>2014-10-19T09:28:48Z</time>
      </trkpt>
      <trkpt lat="43.71271" lon="1.47719">
        <ele>174.7</ele>
        <time>2014-10-19T09:28:51Z</time>
      </trkpt>
      <trkpt lat="43.7127" lon="1.47714">
        <ele>174.6</ele>
        <time>2014-10-19T09:28:52Z</time>
      </trkpt>
      <trkpt lat="43.7127" lon="1.4771">
        <ele>174.5</ele>
        <time>2014-10-19T09:28:53Z</time>
      </trkpt>
      <trkpt lat="43.71267" lon="1.47706">
        <ele>174.4</ele>
        <time>2014-10-19T09:28:54Z</time>
      </trkpt>
      <trkpt lat="43.71263" lon="1.47701">
        <ele>174.4</ele>
        <time>2014-10-19T09:28:55Z</time>
      </trkpt>
      <trkpt lat="43.71261" lon="1.47696">
        <ele>174.4</ele>
        <time>2014-10-19T09:28:56Z</time>
      </trkpt>
      <trkpt lat="43.71261" lon="1.47692">
        <ele>174.4</ele>
        <time>2014-10-19T09:28:57Z</time>
      </trkpt>
      <trkpt lat="43.71261" lon="1.47685">
        <ele>174.4</ele>
        <time>2014-10-19T09:28:59Z</time>
      </trkpt>
      <trkpt lat="43.71267" lon="1.47647">
        <ele>174.9</ele>
        <time>2014-10-19T09:29:06Z</time>
      </trkpt>
      <trkpt lat="43.71262" lon="1.47619">
        <ele>175</ele>
        <time>2014-10-19T09:29:24Z</time>
      </trkpt>
      <trkpt lat="43.7126" lon="1.47615">
        <ele>174.9</ele>
        <time>2014-10-19T09:29:26Z</time>
      </trkpt>
      <trkpt lat="43.71248" lon="1.47602">
        <ele>174.6</ele>
        <time>2014-10-19T09:29:33Z</time>
      </trkpt>
      <trkpt lat="43.71245" lon="1.47598">
        <ele>174.5</ele>
        <time>2014-10-19T09:29:35Z</time>
      </trkpt>
      <trkpt lat="43.71237" lon="1.47588">
        <ele>174.3</ele>
        <time>2014-10-19T09:29:41Z</time>
      </trkpt>
      <trkpt lat="43.71232" lon="1.47576">
        <ele>174.3</ele>
        <time>2014-10-19T09:29:46Z</time>
      </trkpt>
      <trkpt lat="43.71229" lon="1.47573">
        <ele>174.2</ele>
        <time>2014-10-19T09:29:48Z</time>
      </trkpt>
      <trkpt lat="43.71227" lon="1.47571">
        <ele>174.2</ele>
        <time>2014-10-19T09:29:49Z</time>
      </trkpt>
      <trkpt lat="43.71223" lon="1.47565">
        <ele>174.1</ele>
        <time>2014-10-19T09:29:51Z</time>
      </trkpt>
      <trkpt lat="43.7122" lon="1.47561">
        <ele>174.1</ele>
        <time>2014-10-19T09:29:53Z</time>
      </trkpt>
      <trkpt lat="43.71217" lon="1.47559">
        <ele>174</ele>
        <time>2014-10-19T09:29:54Z</time>
      </trkpt>
      <trkpt lat="43.71199" lon="1.47532">
        <ele>174.7</ele>
        <time>2014-10-19T09:30:05Z</time>
      </trkpt>
      <trkpt lat="43.71198" lon="1.47528">
        <ele>174.8</ele>
        <time>2014-10-19T09:30:07Z</time>
      </trkpt>
      <trkpt lat="43.71195" lon="1.47526">
        <ele>175</ele>
        <time>2014-10-19T09:30:08Z</time>
      </trkpt>
      <trkpt lat="43.71193" lon="1.47523">
        <ele>175.2</ele>
        <time>2014-10-19T09:30:09Z</time>
      </trkpt>
      <trkpt lat="43.71191" lon="1.47518">
        <ele>175.4</ele>
        <time>2014-10-19T09:30:11Z</time>
      </trkpt>
      <trkpt lat="43.71188" lon="1.47515">
        <ele>175.6</ele>
        <time>2014-10-19T09:30:13Z</time>
      </trkpt>
      <trkpt lat="43.71186" lon="1.47512">
        <ele>175.8</ele>
        <time>2014-10-19T09:30:15Z</time>
      </trkpt>
      <trkpt lat="43.71186" lon="1.47507">
        <ele>175.8</ele>
        <time>2014-10-19T09:30:17Z</time>
      </trkpt>
      <trkpt lat="43.71181" lon="1.47493">
        <ele>176.4</ele>
        <time>2014-10-19T09:30:22Z</time>
      </trkpt>
      <trkpt lat="43.71179" lon="1.4749">
        <ele>176.6</ele>
        <time>2014-10-19T09:30:23Z</time>
      </trkpt>
      <trkpt lat="43.71177" lon="1.47487">
        <ele>176.8</ele>
        <time>2014-10-19T09:30:24Z</time>
      </trkpt>
      <trkpt lat="43.71169" lon="1.47476">
        <ele>177.5</ele>
        <time>2014-10-19T09:30:28Z</time>
      </trkpt>
      <trkpt lat="43.71148" lon="1.47451">
        <ele>179.5</ele>
        <time>2014-10-19T09:30:36Z</time>
      </trkpt>
      <trkpt lat="43.71145" lon="1.47447">
        <ele>179.9</ele>
        <time>2014-10-19T09:30:37Z</time>
      </trkpt>
      <trkpt lat="43.71142" lon="1.47442">
        <ele>180.2</ele>
        <time>2014-10-19T09:30:39Z</time>
      </trkpt>
      <trkpt lat="43.71141" lon="1.47439">
        <ele>180.4</ele>
        <time>2014-10-19T09:30:40Z</time>
      </trkpt>
      <trkpt lat="43.71139" lon="1.47436">
        <ele>180.6</ele>
        <time>2014-10-19T09:30:41Z</time>
      </trkpt>
      <trkpt lat="43.71136" lon="1.47433">
        <ele>180.8</ele>
        <time>2014-10-19T09:30:42Z</time>
      </trkpt>
      <trkpt lat="43.71135" lon="1.4743">
        <ele>181</ele>
        <time>2014-10-19T09:30:43Z</time>
      </trkpt>
      <trkpt lat="43.71132" lon="1.47426">
        <ele>181.3</ele>
        <time>2014-10-19T09:30:44Z</time>
      </trkpt>
      <trkpt lat="43.7113" lon="1.47424">
        <ele>181.5</ele>
        <time>2014-10-19T09:30:45Z</time>
      </trkpt>
      <trkpt lat="43.71128" lon="1.47421">
        <ele>181.7</ele>
        <time>2014-10-19T09:30:47Z</time>
      </trkpt>
      <trkpt lat="43.71126" lon="1.47417">
        <ele>182</ele>
        <time>2014-10-19T09:30:49Z</time>
      </trkpt>
      <trkpt lat="43.71123" lon="1.47415">
        <ele>182.1</ele>
        <time>2014-10-19T09:30:50Z</time>
      </trkpt>
      <trkpt lat="43.71106" lon="1.47391">
        <ele>183.1</ele>
        <time>2014-10-19T09:31:00Z</time>
      </trkpt>
      <trkpt lat="43.71081" lon="1.47365">
        <ele>183.9</ele>
        <time>2014-10-19T09:31:13Z</time>
      </trkpt>
      <trkpt lat="43.71068" lon="1.4735">
        <ele>184.1</ele>
        <time>2014-10-19T09:31:19Z</time>
      </trkpt>
      <trkpt lat="43.71063" lon="1.47344">
        <ele>184.1</ele>
        <time>2014-10-19T09:31:21Z</time>
      </trkpt>
      <trkpt lat="43.71042" lon="1.4733">
        <ele>184.4</ele>
        <time>2014-10-19T09:31:25Z</time>
      </trkpt>
      <trkpt lat="43.71028" lon="1.4732">
        <ele>184.8</ele>
        <time>2014-10-19T09:31:28Z</time>
      </trkpt>
      <trkpt lat="43.71025" lon="1.47317">
        <ele>184.9</ele>
        <time>2014-10-19T09:31:29Z</time>
      </trkpt>
      <trkpt lat="43.71021" lon="1.47312">
        <ele>185.1</ele>
        <time>2014-10-19T09:31:31Z</time>
      </trkpt>
      <trkpt lat="43.71018" lon="1.47296">
        <ele>185.1</ele>
        <time>2014-10-19T09:31:34Z</time>
      </trkpt>
      <trkpt lat="43.71017" lon="1.47291">
        <ele>185.2</ele>
        <time>2014-10-19T09:31:36Z</time>
      </trkpt>
      <trkpt lat="43.71011" lon="1.47276">
        <ele>186</ele>
        <time>2014-10-19T09:31:40Z</time>
      </trkpt>
      <trkpt lat="43.71009" lon="1.4727">
        <ele>186.3</ele>
        <time>2014-10-19T09:31:42Z</time>
      </trkpt>
      <trkpt lat="43.71007" lon="1.47267">
        <ele>186.4</ele>
        <time>2014-10-19T09:31:43Z</time>
      </trkpt>
      <trkpt lat="43.71004" lon="1.47261">
        <ele>186.7</ele>
        <time>2014-10-19T09:31:45Z</time>
      </trkpt>
      <trkpt lat="43.71002" lon="1.47257">
        <ele>187</ele>
        <time>2014-10-19T09:31:46Z</time>
      </trkpt>
      <trkpt lat="43.70989" lon="1.47242">
        <ele>187.9</ele>
        <time>2014-10-19T09:31:51Z</time>
      </trkpt>
      <trkpt lat="43.70986" lon="1.4724">
        <ele>188.1</ele>
        <time>2014-10-19T09:31:52Z</time>
      </trkpt>
      <trkpt lat="43.70984" lon="1.47237">
        <ele>188.3</ele>
        <time>2014-10-19T09:31:53Z</time>
      </trkpt>
      <trkpt lat="43.70982" lon="1.47233">
        <ele>188.5</ele>
        <time>2014-10-19T09:31:54Z</time>
      </trkpt>
      <trkpt lat="43.70979" lon="1.47229">
        <ele>188.7</ele>
        <time>2014-10-19T09:31:55Z</time>
      </trkpt>
      <trkpt lat="43.70977" lon="1.47226">
        <ele>188.9</ele>
        <time>2014-10-19T09:31:56Z</time>
      </trkpt>
      <trkpt lat="43.70974" lon="1.47223">
        <ele>189.1</ele>
        <time>2014-10-19T09:31:57Z</time>
      </trkpt>
      <trkpt lat="43.70971" lon="1.47219">
        <ele>189.3</ele>
        <time>2014-10-19T09:31:58Z</time>
      </trkpt>
      <trkpt lat="43.70969" lon="1.47215">
        <ele>189.4</ele>
        <time>2014-10-19T09:31:59Z</time>
      </trkpt>
      <trkpt lat="43.70967" lon="1.47212">
        <ele>189.6</ele>
        <time>2014-10-19T09:32:00Z</time>
      </trkpt>
      <trkpt lat="43.70965" lon="1.47209">
        <ele>189.7</ele>
        <time>2014-10-19T09:32:01Z</time>
      </trkpt>
      <trkpt lat="43.70963" lon="1.47205">
        <ele>189.9</ele>
        <time>2014-10-19T09:32:02Z</time>
      </trkpt>
      <trkpt lat="43.7096" lon="1.47202">
        <ele>190</ele>
        <time>2014-10-19T09:32:03Z</time>
      </trkpt>
      <trkpt lat="43.70957" lon="1.47198">
        <ele>190.1</ele>
        <time>2014-10-19T09:32:04Z</time>
      </trkpt>
      <trkpt lat="43.70954" lon="1.47195">
        <ele>190.2</ele>
        <time>2014-10-19T09:32:05Z</time>
      </trkpt>
      <trkpt lat="43.70946" lon="1.47182">
        <ele>190.3</ele>
        <time>2014-10-19T09:32:09Z</time>
      </trkpt>
      <trkpt lat="43.70942" lon="1.47175">
        <ele>190.4</ele>
        <time>2014-10-19T09:32:11Z</time>
      </trkpt>
      <trkpt lat="43.70939" lon="1.4717">
        <ele>190.5</ele>
        <time>2014-10-19T09:32:13Z</time>
      </trkpt>
      <trkpt lat="43.70919" lon="1.47142">
        <ele>190.8</ele>
        <time>2014-10-19T09:32:33Z</time>
      </trkpt>
      <trkpt lat="43.70928" lon="1.47125">
        <ele>191</ele>
        <time>2014-10-19T09:32:39Z</time>
      </trkpt>
      <trkpt lat="43.70931" lon="1.4712">
        <ele>191.1</ele>
        <time>2014-10-19T09:32:41Z</time>
      </trkpt>
      <trkpt lat="43.70946" lon="1.4709">
        <ele>191.4</ele>
        <time>2014-10-19T09:32:51Z</time>
      </trkpt>
      <trkpt lat="43.70948" lon="1.47087">
        <ele>191.5</ele>
        <time>2014-10-19T09:32:52Z</time>
      </trkpt>
      <trkpt lat="43.70949" lon="1.47084">
        <ele>191.5</ele>
        <time>2014-10-19T09:32:53Z</time>
      </trkpt>
      <trkpt lat="43.70951" lon="1.47081">
        <ele>191.5</ele>
        <time>2014-10-19T09:32:54Z</time>
      </trkpt>
      <trkpt lat="43.70954" lon="1.47078">
        <ele>191.6</ele>
        <time>2014-10-19T09:32:55Z</time>
      </trkpt>
      <trkpt lat="43.7096" lon="1.47066">
        <ele>191.7</ele>
        <time>2014-10-19T09:32:58Z</time>
      </trkpt>
      <trkpt lat="43.70971" lon="1.47048">
        <ele>192.1</ele>
        <time>2014-10-19T09:33:03Z</time>
      </trkpt>
      <trkpt lat="43.70973" lon="1.47044">
        <ele>192.1</ele>
        <time>2014-10-19T09:33:04Z</time>
      </trkpt>
      <trkpt lat="43.7098" lon="1.47032">
        <ele>192.5</ele>
        <time>2014-10-19T09:33:08Z</time>
      </trkpt>
      <trkpt lat="43.70984" lon="1.47026">
        <ele>192.6</ele>
        <time>2014-10-19T09:33:10Z</time>
      </trkpt>
      <trkpt lat="43.70987" lon="1.47021">
        <ele>192.8</ele>
        <time>2014-10-19T09:33:12Z</time>
      </trkpt>
      <trkpt lat="43.70989" lon="1.47016">
        <ele>192.8</ele>
        <time>2014-10-19T09:33:14Z</time>
      </trkpt>
      <trkpt lat="43.70992" lon="1.47011">
        <ele>192.9</ele>
        <time>2014-10-19T09:33:16Z</time>
      </trkpt>
      <trkpt lat="43.71011" lon="1.4698">
        <ele>193</ele>
        <time>2014-10-19T09:33:27Z</time>
      </trkpt>
      <trkpt lat="43.71014" lon="1.46976">
        <ele>192.9</ele>
        <time>2014-10-19T09:33:28Z</time>
      </trkpt>
      <trkpt lat="43.71016" lon="1.46973">
        <ele>192.9</ele>
        <time>2014-10-19T09:33:29Z</time>
      </trkpt>
      <trkpt lat="43.71018" lon="1.46969">
        <ele>192.8</ele>
        <time>2014-10-19T09:33:30Z</time>
      </trkpt>
      <trkpt lat="43.71019" lon="1.46966">
        <ele>192.8</ele>
        <time>2014-10-19T09:33:31Z</time>
      </trkpt>
      <trkpt lat="43.71029" lon="1.46951">
        <ele>192.4</ele>
        <time>2014-10-19T09:33:36Z</time>
      </trkpt>
      <trkpt lat="43.71031" lon="1.46947">
        <ele>192.4</ele>
        <time>2014-10-19T09:33:37Z</time>
      </trkpt>
      <trkpt lat="43.7105" lon="1.4692">
        <ele>191.9</ele>
        <time>2014-10-19T09:33:45Z</time>
      </trkpt>
      <trkpt lat="43.71053" lon="1.46915">
        <ele>191.8</ele>
        <time>2014-10-19T09:33:46Z</time>
      </trkpt>
      <trkpt lat="43.71055" lon="1.46911">
        <ele>191.7</ele>
        <time>2014-10-19T09:33:47Z</time>
      </trkpt>
      <trkpt lat="43.71058" lon="1.46908">
        <ele>191.7</ele>
        <time>2014-10-19T09:33:48Z</time>
      </trkpt>
      <trkpt lat="43.71099" lon="1.46858">
        <ele>190.8</ele>
        <time>2014-10-19T09:34:06Z</time>
      </trkpt>
      <trkpt lat="43.71101" lon="1.46855">
        <ele>190.7</ele>
        <time>2014-10-19T09:34:07Z</time>
      </trkpt>
      <trkpt lat="43.71104" lon="1.46853">
        <ele>190.7</ele>
        <time>2014-10-19T09:34:08Z</time>
      </trkpt>
      <trkpt lat="43.71106" lon="1.4685">
        <ele>190.6</ele>
        <time>2014-10-19T09:34:09Z</time>
      </trkpt>
      <trkpt lat="43.71126" lon="1.46831">
        <ele>190</ele>
        <time>2014-10-19T09:34:17Z</time>
      </trkpt>
      <trkpt lat="43.71128" lon="1.46828">
        <ele>189.9</ele>
        <time>2014-10-19T09:34:18Z</time>
      </trkpt>
      <trkpt lat="43.71131" lon="1.46826">
        <ele>189.8</ele>
        <time>2014-10-19T09:34:19Z</time>
      </trkpt>
      <trkpt lat="43.71133" lon="1.46824">
        <ele>189.7</ele>
        <time>2014-10-19T09:34:20Z</time>
      </trkpt>
      <trkpt lat="43.71162" lon="1.46792">
        <ele>188.7</ele>
        <time>2014-10-19T09:34:58Z</time>
      </trkpt>
      <trkpt lat="43.71165" lon="1.46791">
        <ele>188.6</ele>
        <time>2014-10-19T09:34:59Z</time>
      </trkpt>
      <trkpt lat="43.71176" lon="1.46788">
        <ele>188.2</ele>
        <time>2014-10-19T09:35:03Z</time>
      </trkpt>
      <trkpt lat="43.71179" lon="1.46787">
        <ele>188.2</ele>
        <time>2014-10-19T09:35:04Z</time>
      </trkpt>
      <trkpt lat="43.71184" lon="1.46784">
        <ele>188.1</ele>
        <time>2014-10-19T09:35:05Z</time>
      </trkpt>
      <trkpt lat="43.71202" lon="1.46777">
        <ele>187.6</ele>
        <time>2014-10-19T09:35:10Z</time>
      </trkpt>
      <trkpt lat="43.7121" lon="1.46775">
        <ele>187.3</ele>
        <time>2014-10-19T09:35:13Z</time>
      </trkpt>
      <trkpt lat="43.71223" lon="1.46773">
        <ele>186.9</ele>
        <time>2014-10-19T09:35:17Z</time>
      </trkpt>
      <trkpt lat="43.71226" lon="1.46772">
        <ele>186.8</ele>
        <time>2014-10-19T09:35:18Z</time>
      </trkpt>
      <trkpt lat="43.71241" lon="1.46768">
        <ele>186.4</ele>
        <time>2014-10-19T09:35:22Z</time>
      </trkpt>
      <trkpt lat="43.71244" lon="1.46767">
        <ele>186.3</ele>
        <time>2014-10-19T09:35:23Z</time>
      </trkpt>
      <trkpt lat="43.71248" lon="1.46765">
        <ele>186.2</ele>
        <time>2014-10-19T09:35:24Z</time>
      </trkpt>
      <trkpt lat="43.71251" lon="1.46764">
        <ele>186.1</ele>
        <time>2014-10-19T09:35:25Z</time>
      </trkpt>
      <trkpt lat="43.71256" lon="1.46763">
        <ele>186</ele>
        <time>2014-10-19T09:35:26Z</time>
      </trkpt>
      <trkpt lat="43.7126" lon="1.46761">
        <ele>185.9</ele>
        <time>2014-10-19T09:35:27Z</time>
      </trkpt>
      <trkpt lat="43.71263" lon="1.4676">
        <ele>185.8</ele>
        <time>2014-10-19T09:35:28Z</time>
      </trkpt>
      <trkpt lat="43.71267" lon="1.46759">
        <ele>185.7</ele>
        <time>2014-10-19T09:35:29Z</time>
      </trkpt>
      <trkpt lat="43.71276" lon="1.46755">
        <ele>185.5</ele>
        <time>2014-10-19T09:35:32Z</time>
      </trkpt>
      <trkpt lat="43.71279" lon="1.46754">
        <ele>185.4</ele>
        <time>2014-10-19T09:35:33Z</time>
      </trkpt>
      <trkpt lat="43.71282" lon="1.46753">
        <ele>185.3</ele>
        <time>2014-10-19T09:35:34Z</time>
      </trkpt>
      <trkpt lat="43.71284" lon="1.46752">
        <ele>185.2</ele>
        <time>2014-10-19T09:35:35Z</time>
      </trkpt>
      <trkpt lat="43.71322" lon="1.46745">
        <ele>185</ele>
        <time>2014-10-19T09:35:49Z</time>
      </trkpt>
      <trkpt lat="43.71348" lon="1.46742">
        <ele>184.9</ele>
        <time>2014-10-19T09:35:58Z</time>
      </trkpt>
      <trkpt lat="43.71352" lon="1.46742">
        <ele>184.9</ele>
        <time>2014-10-19T09:35:59Z</time>
      </trkpt>
      <trkpt lat="43.71355" lon="1.46741">
        <ele>184.9</ele>
        <time>2014-10-19T09:36:00Z</time>
      </trkpt>
      <trkpt lat="43.71358" lon="1.4674">
        <ele>184.9</ele>
        <time>2014-10-19T09:36:01Z</time>
      </trkpt>
      <trkpt lat="43.71362" lon="1.4674">
        <ele>184.8</ele>
        <time>2014-10-19T09:36:02Z</time>
      </trkpt>
      <trkpt lat="43.71371" lon="1.46738">
        <ele>184.7</ele>
        <time>2014-10-19T09:36:05Z</time>
      </trkpt>
      <trkpt lat="43.71374" lon="1.46737">
        <ele>184.7</ele>
        <time>2014-10-19T09:36:06Z</time>
      </trkpt>
      <trkpt lat="43.71387" lon="1.46731">
        <ele>184.5</ele>
        <time>2014-10-19T09:36:10Z</time>
      </trkpt>
      <trkpt lat="43.71398" lon="1.46722">
        <ele>184.1</ele>
        <time>2014-10-19T09:36:14Z</time>
      </trkpt>
      <trkpt lat="43.71403" lon="1.46717">
        <ele>183.9</ele>
        <time>2014-10-19T09:36:16Z</time>
      </trkpt>
      <trkpt lat="43.71418" lon="1.46693">
        <ele>183.7</ele>
        <time>2014-10-19T09:36:36Z</time>
      </trkpt>
      <trkpt lat="43.71423" lon="1.4669">
        <ele>183.7</ele>
        <time>2014-10-19T09:36:38Z</time>
      </trkpt>
      <trkpt lat="43.71426" lon="1.46687">
        <ele>183.7</ele>
        <time>2014-10-19T09:36:39Z</time>
      </trkpt>
      <trkpt lat="43.71428" lon="1.46685">
        <ele>183.8</ele>
        <time>2014-10-19T09:36:40Z</time>
      </trkpt>
      <trkpt lat="43.71444" lon="1.4667">
        <ele>183.7</ele>
        <time>2014-10-19T09:36:46Z</time>
      </trkpt>
      <trkpt lat="43.71447" lon="1.46665">
        <ele>183.7</ele>
        <time>2014-10-19T09:36:48Z</time>
      </trkpt>
      <trkpt lat="43.71454" lon="1.46653">
        <ele>183.8</ele>
        <time>2014-10-19T09:36:53Z</time>
      </trkpt>
      <trkpt lat="43.71525" lon="1.46621">
        <ele>182.4</ele>
        <time>2014-10-19T09:37:23Z</time>
      </trkpt>
      <trkpt lat="43.71529" lon="1.46621">
        <ele>182.4</ele>
        <time>2014-10-19T09:37:24Z</time>
      </trkpt>
      <trkpt lat="43.71541" lon="1.4662">
        <ele>182.1</ele>
        <time>2014-10-19T09:37:28Z</time>
      </trkpt>
      <trkpt lat="43.71544" lon="1.4662">
        <ele>182.1</ele>
        <time>2014-10-19T09:37:29Z</time>
      </trkpt>
      <trkpt lat="43.71547" lon="1.4662">
        <ele>182.1</ele>
        <time>2014-10-19T09:37:30Z</time>
      </trkpt>
      <trkpt lat="43.71564" lon="1.46616">
        <ele>182</ele>
        <time>2014-10-19T09:37:38Z</time>
      </trkpt>
      <trkpt lat="43.71568" lon="1.46614">
        <ele>182</ele>
        <time>2014-10-19T09:37:40Z</time>
      </trkpt>
      <trkpt lat="43.71588" lon="1.46613">
        <ele>182</ele>
        <time>2014-10-19T09:37:49Z</time>
      </trkpt>
      <trkpt lat="43.71606" lon="1.46612">
        <ele>181.9</ele>
        <time>2014-10-19T09:37:55Z</time>
      </trkpt>
      <trkpt lat="43.71609" lon="1.46612">
        <ele>181.9</ele>
        <time>2014-10-19T09:37:56Z</time>
      </trkpt>
      <trkpt lat="43.71612" lon="1.46612">
        <ele>181.9</ele>
        <time>2014-10-19T09:37:57Z</time>
      </trkpt>
      <trkpt lat="43.7161" lon="1.46604">
        <ele>181.8</ele>
        <time>2014-10-19T09:37:58Z</time>
      </trkpt>
      <trkpt lat="43.71613" lon="1.466">
        <ele>181.8</ele>
        <time>2014-10-19T09:38:00Z</time>
      </trkpt>
      <trkpt lat="43.71645" lon="1.46596">
        <ele>181</ele>
        <time>2014-10-19T09:38:10Z</time>
      </trkpt>
      <trkpt lat="43.71657" lon="1.46594">
        <ele>180.6</ele>
        <time>2014-10-19T09:38:13Z</time>
      </trkpt>
      <trkpt lat="43.71661" lon="1.46594">
        <ele>180.5</ele>
        <time>2014-10-19T09:38:14Z</time>
      </trkpt>
      <trkpt lat="43.71665" lon="1.46592">
        <ele>180.4</ele>
        <time>2014-10-19T09:38:15Z</time>
      </trkpt>
      <trkpt lat="43.71685" lon="1.46587">
        <ele>179.7</ele>
        <time>2014-10-19T09:38:21Z</time>
      </trkpt>
      <trkpt lat="43.71688" lon="1.46586">
        <ele>179.6</ele>
        <time>2014-10-19T09:38:22Z</time>
      </trkpt>
      <trkpt lat="43.71692" lon="1.46585">
        <ele>179.5</ele>
        <time>2014-10-19T09:38:23Z</time>
      </trkpt>
      <trkpt lat="43.71716" lon="1.46579">
        <ele>178.8</ele>
        <time>2014-10-19T09:38:30Z</time>
      </trkpt>
      <trkpt lat="43.71755" lon="1.46555">
        <ele>177.9</ele>
        <time>2014-10-19T09:38:43Z</time>
      </trkpt>
      <trkpt lat="43.71758" lon="1.46553">
        <ele>177.8</ele>
        <time>2014-10-19T09:38:44Z</time>
      </trkpt>
      <trkpt lat="43.71761" lon="1.46551">
        <ele>177.7</ele>
        <time>2014-10-19T09:38:45Z</time>
      </trkpt>
      <trkpt lat="43.71766" lon="1.46547">
        <ele>177.6</ele>
        <time>2014-10-19T09:38:47Z</time>
      </trkpt>
      <trkpt lat="43.71769" lon="1.46545">
        <ele>177.5</ele>
        <time>2014-10-19T09:38:48Z</time>
      </trkpt>
      <trkpt lat="43.71772" lon="1.46544">
        <ele>177.5</ele>
        <time>2014-10-19T09:38:49Z</time>
      </trkpt>
      <trkpt lat="43.71776" lon="1.46543">
        <ele>177.4</ele>
        <time>2014-10-19T09:38:50Z</time>
      </trkpt>
      <trkpt lat="43.71788" lon="1.46535">
        <ele>176.9</ele>
        <time>2014-10-19T09:38:54Z</time>
      </trkpt>
    </trkseg>
  </trk>
</gpx>